<?xml version="1.0" encoding="UTF-8" standalone="no" ?>
<gpx xmlns="http://www.topografix.com/GPX/1/1" xmlns:xsi="http://www.w3.org/2001/XMLSchema-instance" xsi:schemaLocation="http://www.topografix.com/GPX/1/1 http://www.topografix.com/GPX/1/1/gpx.xsd" version="1.1" creator="VisuGPX - https://www.visugpx.com">
  <metadata>
    <name>Barrage de Bimont</name>
    <desc><![CDATA[Tres belle balade ]]></desc>
  </metadata>
  <wpt lat="43.54171" lon="5.53253">
    <ele>358</ele>
  </wpt>
  <wpt lat="43.53145" lon="5.57839">
    <ele>859</ele>
  </wpt>
  <trk>
    <name><![CDATA[Barrage de Bimont_1]]></name>
    <trkseg>
      <trkpt lat="43.54171" lon="5.53253">
        <ele>358</ele>
        <time>2009-01-30T08:36:00Z</time>
      </trkpt>
      <trkpt lat="43.54176" lon="5.53263">
        <ele>359</ele>
        <time>2009-01-30T08:37:06Z</time>
      </trkpt>
      <trkpt lat="43.54176" lon="5.53277">
        <ele>359</ele>
        <time>2009-01-30T08:37:14Z</time>
      </trkpt>
      <trkpt lat="43.54178" lon="5.5329">
        <ele>359</ele>
        <time>2009-01-30T08:37:20Z</time>
      </trkpt>
      <trkpt lat="43.54178" lon="5.53303">
        <ele>359</ele>
        <time>2009-01-30T08:37:29Z</time>
      </trkpt>
      <trkpt lat="43.54169" lon="5.53311">
        <ele>357</ele>
        <time>2009-01-30T08:37:36Z</time>
      </trkpt>
      <trkpt lat="43.54167" lon="5.53325">
        <ele>355</ele>
        <time>2009-01-30T08:37:42Z</time>
      </trkpt>
      <trkpt lat="43.54167" lon="5.53338">
        <ele>353</ele>
        <time>2009-01-30T08:37:50Z</time>
      </trkpt>
      <trkpt lat="43.54168" lon="5.53351">
        <ele>355</ele>
        <time>2009-01-30T08:37:58Z</time>
      </trkpt>
      <trkpt lat="43.54165" lon="5.53363">
        <ele>341</ele>
        <time>2009-01-30T08:38:15Z</time>
      </trkpt>
      <trkpt lat="43.54163" lon="5.53376">
        <ele>341</ele>
        <time>2009-01-30T08:38:21Z</time>
      </trkpt>
      <trkpt lat="43.54159" lon="5.53387">
        <ele>341</ele>
        <time>2009-01-30T08:38:29Z</time>
      </trkpt>
      <trkpt lat="43.54155" lon="5.53399">
        <ele>343</ele>
        <time>2009-01-30T08:38:36Z</time>
      </trkpt>
      <trkpt lat="43.54149" lon="5.53409">
        <ele>343</ele>
        <time>2009-01-30T08:38:43Z</time>
      </trkpt>
      <trkpt lat="43.54144" lon="5.5342">
        <ele>341</ele>
        <time>2009-01-30T08:38:49Z</time>
      </trkpt>
      <trkpt lat="43.54139" lon="5.53431">
        <ele>338</ele>
        <time>2009-01-30T08:38:55Z</time>
      </trkpt>
      <trkpt lat="43.54133" lon="5.53442">
        <ele>336</ele>
        <time>2009-01-30T08:39:01Z</time>
      </trkpt>
      <trkpt lat="43.54136" lon="5.53455">
        <ele>336</ele>
        <time>2009-01-30T08:39:11Z</time>
      </trkpt>
      <trkpt lat="43.54137" lon="5.53469">
        <ele>336</ele>
        <time>2009-01-30T08:39:19Z</time>
      </trkpt>
      <trkpt lat="43.54139" lon="5.53484">
        <ele>338</ele>
        <time>2009-01-30T08:39:27Z</time>
      </trkpt>
      <trkpt lat="43.54142" lon="5.53495">
        <ele>339</ele>
        <time>2009-01-30T08:39:33Z</time>
      </trkpt>
      <trkpt lat="43.54144" lon="5.53508">
        <ele>338</ele>
        <time>2009-01-30T08:39:39Z</time>
      </trkpt>
      <trkpt lat="43.54148" lon="5.53519">
        <ele>338</ele>
        <time>2009-01-30T08:39:46Z</time>
      </trkpt>
      <trkpt lat="43.54152" lon="5.5353">
        <ele>336</ele>
        <time>2009-01-30T08:39:56Z</time>
      </trkpt>
      <trkpt lat="43.54154" lon="5.53543">
        <ele>335</ele>
        <time>2009-01-30T08:40:02Z</time>
      </trkpt>
      <trkpt lat="43.54153" lon="5.53555">
        <ele>335</ele>
        <time>2009-01-30T08:40:09Z</time>
      </trkpt>
      <trkpt lat="43.54148" lon="5.53565">
        <ele>334</ele>
        <time>2009-01-30T08:40:16Z</time>
      </trkpt>
      <trkpt lat="43.54142" lon="5.53577">
        <ele>334</ele>
        <time>2009-01-30T08:40:23Z</time>
      </trkpt>
      <trkpt lat="43.54135" lon="5.53586">
        <ele>330</ele>
        <time>2009-01-30T08:40:30Z</time>
      </trkpt>
      <trkpt lat="43.54128" lon="5.53593">
        <ele>329</ele>
        <time>2009-01-30T08:40:37Z</time>
      </trkpt>
      <trkpt lat="43.54121" lon="5.53602">
        <ele>327</ele>
        <time>2009-01-30T08:40:44Z</time>
      </trkpt>
      <trkpt lat="43.54114" lon="5.53612">
        <ele>327</ele>
        <time>2009-01-30T08:40:54Z</time>
      </trkpt>
      <trkpt lat="43.54107" lon="5.53621">
        <ele>326</ele>
        <time>2009-01-30T08:41:01Z</time>
      </trkpt>
      <trkpt lat="43.54097" lon="5.53628">
        <ele>326</ele>
        <time>2009-01-30T08:41:10Z</time>
      </trkpt>
      <trkpt lat="43.54089" lon="5.53634">
        <ele>326</ele>
        <time>2009-01-30T08:41:17Z</time>
      </trkpt>
      <trkpt lat="43.54082" lon="5.53642">
        <ele>322</ele>
        <time>2009-01-30T08:41:53Z</time>
      </trkpt>
      <trkpt lat="43.54073" lon="5.53642">
        <ele>322</ele>
        <time>2009-01-30T08:42:47Z</time>
      </trkpt>
      <trkpt lat="43.54064" lon="5.53646">
        <ele>323</ele>
        <time>2009-01-30T08:42:52Z</time>
      </trkpt>
      <trkpt lat="43.54054" lon="5.5365">
        <ele>323</ele>
        <time>2009-01-30T08:42:59Z</time>
      </trkpt>
      <trkpt lat="43.54045" lon="5.53646">
        <ele>322</ele>
        <time>2009-01-30T08:43:33Z</time>
      </trkpt>
      <trkpt lat="43.54037" lon="5.5365">
        <ele>323</ele>
        <time>2009-01-30T08:43:40Z</time>
      </trkpt>
      <trkpt lat="43.54027" lon="5.53647">
        <ele>323</ele>
        <time>2009-01-30T08:43:59Z</time>
      </trkpt>
      <trkpt lat="43.54018" lon="5.53648">
        <ele>324</ele>
        <time>2009-01-30T08:44:07Z</time>
      </trkpt>
      <trkpt lat="43.54008" lon="5.53645">
        <ele>324</ele>
        <time>2009-01-30T08:44:17Z</time>
      </trkpt>
      <trkpt lat="43.53999" lon="5.53642">
        <ele>333</ele>
        <time>2009-01-30T08:44:22Z</time>
      </trkpt>
      <trkpt lat="43.5399" lon="5.53637">
        <ele>333</ele>
        <time>2009-01-30T08:44:30Z</time>
      </trkpt>
      <trkpt lat="43.53982" lon="5.53631">
        <ele>334</ele>
        <time>2009-01-30T08:44:38Z</time>
      </trkpt>
      <trkpt lat="43.53974" lon="5.53626">
        <ele>335</ele>
        <time>2009-01-30T08:44:45Z</time>
      </trkpt>
      <trkpt lat="43.53966" lon="5.5362">
        <ele>336</ele>
        <time>2009-01-30T08:44:52Z</time>
      </trkpt>
      <trkpt lat="43.53958" lon="5.53616">
        <ele>337</ele>
        <time>2009-01-30T08:45:01Z</time>
      </trkpt>
      <trkpt lat="43.53949" lon="5.53612">
        <ele>339</ele>
        <time>2009-01-30T08:45:09Z</time>
      </trkpt>
      <trkpt lat="43.53941" lon="5.53608">
        <ele>341</ele>
        <time>2009-01-30T08:45:21Z</time>
      </trkpt>
      <trkpt lat="43.53948" lon="5.53615">
        <ele>339</ele>
        <time>2009-01-30T08:45:38Z</time>
      </trkpt>
      <trkpt lat="43.53946" lon="5.53627">
        <ele>340</ele>
        <time>2009-01-30T08:45:51Z</time>
      </trkpt>
      <trkpt lat="43.53943" lon="5.53639">
        <ele>342</ele>
        <time>2009-01-30T08:45:57Z</time>
      </trkpt>
      <trkpt lat="43.53936" lon="5.53648">
        <ele>345</ele>
        <time>2009-01-30T08:46:09Z</time>
      </trkpt>
      <trkpt lat="43.53938" lon="5.53661">
        <ele>346</ele>
        <time>2009-01-30T08:46:28Z</time>
      </trkpt>
      <trkpt lat="43.53933" lon="5.53672">
        <ele>351</ele>
        <time>2009-01-30T08:46:37Z</time>
      </trkpt>
      <trkpt lat="43.53927" lon="5.53684">
        <ele>350</ele>
        <time>2009-01-30T08:46:45Z</time>
      </trkpt>
      <trkpt lat="43.53924" lon="5.53696">
        <ele>349</ele>
        <time>2009-01-30T08:47:00Z</time>
      </trkpt>
      <trkpt lat="43.53917" lon="5.53704">
        <ele>349</ele>
        <time>2009-01-30T08:47:14Z</time>
      </trkpt>
      <trkpt lat="43.53911" lon="5.53714">
        <ele>362</ele>
        <time>2009-01-30T08:47:26Z</time>
      </trkpt>
      <trkpt lat="43.53906" lon="5.53723">
        <ele>362</ele>
        <time>2009-01-30T08:47:36Z</time>
      </trkpt>
      <trkpt lat="43.53901" lon="5.53734">
        <ele>362</ele>
        <time>2009-01-30T08:47:43Z</time>
      </trkpt>
      <trkpt lat="43.53895" lon="5.53744">
        <ele>362</ele>
        <time>2009-01-30T08:47:54Z</time>
      </trkpt>
      <trkpt lat="43.53888" lon="5.53756">
        <ele>361</ele>
        <time>2009-01-30T08:48:02Z</time>
      </trkpt>
      <trkpt lat="43.5388" lon="5.53765">
        <ele>362</ele>
        <time>2009-01-30T08:48:14Z</time>
      </trkpt>
      <trkpt lat="43.53873" lon="5.53774">
        <ele>363</ele>
        <time>2009-01-30T08:48:25Z</time>
      </trkpt>
      <trkpt lat="43.53864" lon="5.53781">
        <ele>364</ele>
        <time>2009-01-30T08:48:35Z</time>
      </trkpt>
      <trkpt lat="43.53858" lon="5.53792">
        <ele>364</ele>
        <time>2009-01-30T08:48:41Z</time>
      </trkpt>
      <trkpt lat="43.53854" lon="5.53803">
        <ele>364</ele>
        <time>2009-01-30T08:48:49Z</time>
      </trkpt>
      <trkpt lat="43.53847" lon="5.53811">
        <ele>365</ele>
        <time>2009-01-30T08:48:58Z</time>
      </trkpt>
      <trkpt lat="43.53841" lon="5.53821">
        <ele>366</ele>
        <time>2009-01-30T08:49:06Z</time>
      </trkpt>
      <trkpt lat="43.53834" lon="5.53831">
        <ele>369</ele>
        <time>2009-01-30T08:49:14Z</time>
      </trkpt>
      <trkpt lat="43.53829" lon="5.53841">
        <ele>370</ele>
        <time>2009-01-30T08:49:20Z</time>
      </trkpt>
      <trkpt lat="43.53822" lon="5.5385">
        <ele>370</ele>
        <time>2009-01-30T08:49:27Z</time>
      </trkpt>
      <trkpt lat="43.53815" lon="5.53857">
        <ele>370</ele>
        <time>2009-01-30T08:49:34Z</time>
      </trkpt>
      <trkpt lat="43.53808" lon="5.53865">
        <ele>370</ele>
        <time>2009-01-30T08:49:46Z</time>
      </trkpt>
      <trkpt lat="43.53801" lon="5.53874">
        <ele>371</ele>
        <time>2009-01-30T08:49:53Z</time>
      </trkpt>
      <trkpt lat="43.53796" lon="5.53887">
        <ele>371</ele>
        <time>2009-01-30T08:50:00Z</time>
      </trkpt>
      <trkpt lat="43.53796" lon="5.53899">
        <ele>370</ele>
        <time>2009-01-30T08:50:09Z</time>
      </trkpt>
      <trkpt lat="43.53793" lon="5.53911">
        <ele>370</ele>
        <time>2009-01-30T08:50:32Z</time>
      </trkpt>
      <trkpt lat="43.53784" lon="5.53915">
        <ele>372</ele>
        <time>2009-01-30T08:50:38Z</time>
      </trkpt>
      <trkpt lat="43.53777" lon="5.53924">
        <ele>369</ele>
        <time>2009-01-30T08:50:45Z</time>
      </trkpt>
      <trkpt lat="43.53775" lon="5.53935">
        <ele>369</ele>
        <time>2009-01-30T08:50:54Z</time>
      </trkpt>
      <trkpt lat="43.53769" lon="5.53945">
        <ele>368</ele>
        <time>2009-01-30T08:50:59Z</time>
      </trkpt>
      <trkpt lat="43.5376" lon="5.53951">
        <ele>369</ele>
        <time>2009-01-30T08:51:08Z</time>
      </trkpt>
      <trkpt lat="43.53756" lon="5.53963">
        <ele>368</ele>
        <time>2009-01-30T08:51:14Z</time>
      </trkpt>
      <trkpt lat="43.5375" lon="5.53974">
        <ele>376</ele>
        <time>2009-01-30T08:51:24Z</time>
      </trkpt>
      <trkpt lat="43.53743" lon="5.53983">
        <ele>375</ele>
        <time>2009-01-30T08:51:32Z</time>
      </trkpt>
      <trkpt lat="43.53734" lon="5.53989">
        <ele>375</ele>
        <time>2009-01-30T08:51:42Z</time>
      </trkpt>
      <trkpt lat="43.53727" lon="5.53999">
        <ele>376</ele>
        <time>2009-01-30T08:51:51Z</time>
      </trkpt>
      <trkpt lat="43.53717" lon="5.54004">
        <ele>372</ele>
        <time>2009-01-30T08:52:05Z</time>
      </trkpt>
      <trkpt lat="43.53712" lon="5.54014">
        <ele>372</ele>
        <time>2009-01-30T08:52:12Z</time>
      </trkpt>
      <trkpt lat="43.5371" lon="5.54027">
        <ele>372</ele>
        <time>2009-01-30T08:52:21Z</time>
      </trkpt>
      <trkpt lat="43.53711" lon="5.5404">
        <ele>371</ele>
        <time>2009-01-30T08:52:30Z</time>
      </trkpt>
      <trkpt lat="43.53708" lon="5.54055">
        <ele>370</ele>
        <time>2009-01-30T08:52:38Z</time>
      </trkpt>
      <trkpt lat="43.53705" lon="5.54067">
        <ele>370</ele>
        <time>2009-01-30T08:52:43Z</time>
      </trkpt>
      <trkpt lat="43.53705" lon="5.54079">
        <ele>370</ele>
        <time>2009-01-30T08:52:56Z</time>
      </trkpt>
      <trkpt lat="43.53701" lon="5.54091">
        <ele>364</ele>
        <time>2009-01-30T08:53:07Z</time>
      </trkpt>
      <trkpt lat="43.53692" lon="5.54086">
        <ele>366</ele>
        <time>2009-01-30T08:53:21Z</time>
      </trkpt>
      <trkpt lat="43.53693" lon="5.541">
        <ele>365</ele>
        <time>2009-01-30T08:53:59Z</time>
      </trkpt>
      <trkpt lat="43.53688" lon="5.54111">
        <ele>365</ele>
        <time>2009-01-30T08:54:03Z</time>
      </trkpt>
      <trkpt lat="43.53683" lon="5.54126">
        <ele>364</ele>
        <time>2009-01-30T08:54:08Z</time>
      </trkpt>
      <trkpt lat="43.5368" lon="5.54138">
        <ele>363</ele>
        <time>2009-01-30T08:54:12Z</time>
      </trkpt>
      <trkpt lat="43.53675" lon="5.54148">
        <ele>362</ele>
        <time>2009-01-30T08:54:17Z</time>
      </trkpt>
      <trkpt lat="43.53668" lon="5.54157">
        <ele>362</ele>
        <time>2009-01-30T08:54:52Z</time>
      </trkpt>
      <trkpt lat="43.5366" lon="5.54164">
        <ele>366</ele>
        <time>2009-01-30T08:55:38Z</time>
      </trkpt>
      <trkpt lat="43.53658" lon="5.54177">
        <ele>366</ele>
        <time>2009-01-30T08:55:42Z</time>
      </trkpt>
      <trkpt lat="43.53657" lon="5.5419">
        <ele>367</ele>
        <time>2009-01-30T08:55:51Z</time>
      </trkpt>
      <trkpt lat="43.53661" lon="5.54202">
        <ele>367</ele>
        <time>2009-01-30T08:56:01Z</time>
      </trkpt>
      <trkpt lat="43.53665" lon="5.54215">
        <ele>367</ele>
        <time>2009-01-30T08:56:12Z</time>
      </trkpt>
      <trkpt lat="43.53667" lon="5.54228">
        <ele>360</ele>
        <time>2009-01-30T08:56:20Z</time>
      </trkpt>
      <trkpt lat="43.53669" lon="5.54241">
        <ele>359</ele>
        <time>2009-01-30T08:56:28Z</time>
      </trkpt>
      <trkpt lat="43.53671" lon="5.54254">
        <ele>360</ele>
        <time>2009-01-30T08:56:40Z</time>
      </trkpt>
      <trkpt lat="43.53669" lon="5.54267">
        <ele>362</ele>
        <time>2009-01-30T08:56:49Z</time>
      </trkpt>
      <trkpt lat="43.53672" lon="5.54279">
        <ele>363</ele>
        <time>2009-01-30T08:56:57Z</time>
      </trkpt>
      <trkpt lat="43.53673" lon="5.54291">
        <ele>364</ele>
        <time>2009-01-30T08:57:04Z</time>
      </trkpt>
      <trkpt lat="43.53672" lon="5.54304">
        <ele>364</ele>
        <time>2009-01-30T08:57:16Z</time>
      </trkpt>
      <trkpt lat="43.53669" lon="5.54316">
        <ele>364</ele>
        <time>2009-01-30T08:57:22Z</time>
      </trkpt>
      <trkpt lat="43.53664" lon="5.54328">
        <ele>363</ele>
        <time>2009-01-30T08:57:31Z</time>
      </trkpt>
      <trkpt lat="43.53659" lon="5.54338">
        <ele>364</ele>
        <time>2009-01-30T08:57:41Z</time>
      </trkpt>
      <trkpt lat="43.53657" lon="5.5435">
        <ele>365</ele>
        <time>2009-01-30T08:57:48Z</time>
      </trkpt>
      <trkpt lat="43.53662" lon="5.5436">
        <ele>366</ele>
        <time>2009-01-30T08:57:58Z</time>
      </trkpt>
      <trkpt lat="43.53667" lon="5.54371">
        <ele>370</ele>
        <time>2009-01-30T08:58:08Z</time>
      </trkpt>
      <trkpt lat="43.53674" lon="5.5438">
        <ele>371</ele>
        <time>2009-01-30T08:58:18Z</time>
      </trkpt>
      <trkpt lat="43.53679" lon="5.5439">
        <ele>371</ele>
        <time>2009-01-30T08:58:27Z</time>
      </trkpt>
      <trkpt lat="43.53686" lon="5.54399">
        <ele>372</ele>
        <time>2009-01-30T08:58:39Z</time>
      </trkpt>
      <trkpt lat="43.53694" lon="5.54405">
        <ele>372</ele>
        <time>2009-01-30T08:58:52Z</time>
      </trkpt>
      <trkpt lat="43.53696" lon="5.54418">
        <ele>376</ele>
        <time>2009-01-30T08:59:01Z</time>
      </trkpt>
      <trkpt lat="43.537" lon="5.54431">
        <ele>377</ele>
        <time>2009-01-30T08:59:19Z</time>
      </trkpt>
      <trkpt lat="43.53702" lon="5.54444">
        <ele>378</ele>
        <time>2009-01-30T08:59:31Z</time>
      </trkpt>
      <trkpt lat="43.53708" lon="5.54454">
        <ele>379</ele>
        <time>2009-01-30T08:59:42Z</time>
      </trkpt>
      <trkpt lat="43.53712" lon="5.54466">
        <ele>379</ele>
        <time>2009-01-30T08:59:54Z</time>
      </trkpt>
      <trkpt lat="43.53716" lon="5.54478">
        <ele>380</ele>
        <time>2009-01-30T09:00:06Z</time>
      </trkpt>
      <trkpt lat="43.53722" lon="5.54488">
        <ele>381</ele>
        <time>2009-01-30T09:00:17Z</time>
      </trkpt>
      <trkpt lat="43.53724" lon="5.54501">
        <ele>385</ele>
        <time>2009-01-30T09:00:28Z</time>
      </trkpt>
      <trkpt lat="43.53726" lon="5.54515">
        <ele>386</ele>
        <time>2009-01-30T09:00:40Z</time>
      </trkpt>
      <trkpt lat="43.53726" lon="5.54527">
        <ele>386</ele>
        <time>2009-01-30T09:00:55Z</time>
      </trkpt>
      <trkpt lat="43.53724" lon="5.5454">
        <ele>387</ele>
        <time>2009-01-30T09:01:08Z</time>
      </trkpt>
      <trkpt lat="43.53724" lon="5.54553">
        <ele>388</ele>
        <time>2009-01-30T09:01:18Z</time>
      </trkpt>
      <trkpt lat="43.53728" lon="5.54565">
        <ele>389</ele>
        <time>2009-01-30T09:01:28Z</time>
      </trkpt>
      <trkpt lat="43.53733" lon="5.54576">
        <ele>390</ele>
        <time>2009-01-30T09:01:54Z</time>
      </trkpt>
      <trkpt lat="43.53741" lon="5.54582">
        <ele>391</ele>
        <time>2009-01-30T09:02:06Z</time>
      </trkpt>
      <trkpt lat="43.53746" lon="5.54593">
        <ele>395</ele>
        <time>2009-01-30T09:02:16Z</time>
      </trkpt>
      <trkpt lat="43.53752" lon="5.54603">
        <ele>399</ele>
        <time>2009-01-30T09:02:27Z</time>
      </trkpt>
      <trkpt lat="43.53757" lon="5.54613">
        <ele>400</ele>
        <time>2009-01-30T09:02:40Z</time>
      </trkpt>
      <trkpt lat="43.53765" lon="5.5462">
        <ele>402</ele>
        <time>2009-01-30T09:02:51Z</time>
      </trkpt>
      <trkpt lat="43.53774" lon="5.54625">
        <ele>402</ele>
        <time>2009-01-30T09:03:06Z</time>
      </trkpt>
      <trkpt lat="43.53773" lon="5.54638">
        <ele>403</ele>
        <time>2009-01-30T09:03:18Z</time>
      </trkpt>
      <trkpt lat="43.53771" lon="5.5465">
        <ele>404</ele>
        <time>2009-01-30T09:03:28Z</time>
      </trkpt>
      <trkpt lat="43.53773" lon="5.54663">
        <ele>404</ele>
        <time>2009-01-30T09:03:40Z</time>
      </trkpt>
      <trkpt lat="43.53775" lon="5.54676">
        <ele>409</ele>
        <time>2009-01-30T09:03:50Z</time>
      </trkpt>
      <trkpt lat="43.53776" lon="5.54689">
        <ele>410</ele>
        <time>2009-01-30T09:04:03Z</time>
      </trkpt>
      <trkpt lat="43.53777" lon="5.54702">
        <ele>410</ele>
        <time>2009-01-30T09:04:15Z</time>
      </trkpt>
      <trkpt lat="43.53783" lon="5.54712">
        <ele>411</ele>
        <time>2009-01-30T09:04:32Z</time>
      </trkpt>
      <trkpt lat="43.53786" lon="5.54724">
        <ele>412</ele>
        <time>2009-01-30T09:04:51Z</time>
      </trkpt>
      <trkpt lat="43.53789" lon="5.54736">
        <ele>412</ele>
        <time>2009-01-30T09:05:11Z</time>
      </trkpt>
      <trkpt lat="43.53792" lon="5.54747">
        <ele>412</ele>
        <time>2009-01-30T09:05:27Z</time>
      </trkpt>
      <trkpt lat="43.53794" lon="5.54759">
        <ele>418</ele>
        <time>2009-01-30T09:05:51Z</time>
      </trkpt>
      <trkpt lat="43.53795" lon="5.54772">
        <ele>418</ele>
        <time>2009-01-30T09:06:25Z</time>
      </trkpt>
      <trkpt lat="43.53792" lon="5.54783">
        <ele>419</ele>
        <time>2009-01-30T09:07:56Z</time>
      </trkpt>
      <trkpt lat="43.53794" lon="5.54795">
        <ele>419</ele>
        <time>2009-01-30T09:08:18Z</time>
      </trkpt>
      <trkpt lat="43.53796" lon="5.54808">
        <ele>420</ele>
        <time>2009-01-30T09:08:35Z</time>
      </trkpt>
      <trkpt lat="43.53795" lon="5.54821">
        <ele>421</ele>
        <time>2009-01-30T09:08:48Z</time>
      </trkpt>
      <trkpt lat="43.53797" lon="5.54834">
        <ele>423</ele>
        <time>2009-01-30T09:08:58Z</time>
      </trkpt>
      <trkpt lat="43.53803" lon="5.54844">
        <ele>424</ele>
        <time>2009-01-30T09:09:08Z</time>
      </trkpt>
      <trkpt lat="43.53811" lon="5.54851">
        <ele>424</ele>
        <time>2009-01-30T09:09:17Z</time>
      </trkpt>
      <trkpt lat="43.53819" lon="5.54855">
        <ele>424</ele>
        <time>2009-01-30T09:09:33Z</time>
      </trkpt>
      <trkpt lat="43.53824" lon="5.54867">
        <ele>424</ele>
        <time>2009-01-30T09:09:43Z</time>
      </trkpt>
      <trkpt lat="43.53833" lon="5.54874">
        <ele>425</ele>
        <time>2009-01-30T09:09:53Z</time>
      </trkpt>
      <trkpt lat="43.53839" lon="5.54883">
        <ele>427</ele>
        <time>2009-01-30T09:10:05Z</time>
      </trkpt>
      <trkpt lat="43.53848" lon="5.54889">
        <ele>427</ele>
        <time>2009-01-30T09:10:15Z</time>
      </trkpt>
      <trkpt lat="43.53852" lon="5.54899">
        <ele>427</ele>
        <time>2009-01-30T09:10:25Z</time>
      </trkpt>
      <trkpt lat="43.53857" lon="5.5491">
        <ele>427</ele>
        <time>2009-01-30T09:10:38Z</time>
      </trkpt>
      <trkpt lat="43.53863" lon="5.5492">
        <ele>432</ele>
        <time>2009-01-30T09:10:50Z</time>
      </trkpt>
      <trkpt lat="43.53866" lon="5.54932">
        <ele>432</ele>
        <time>2009-01-30T09:11:00Z</time>
      </trkpt>
      <trkpt lat="43.5387" lon="5.54943">
        <ele>433</ele>
        <time>2009-01-30T09:11:11Z</time>
      </trkpt>
      <trkpt lat="43.53872" lon="5.54956">
        <ele>433</ele>
        <time>2009-01-30T09:11:24Z</time>
      </trkpt>
      <trkpt lat="43.53875" lon="5.54968">
        <ele>434</ele>
        <time>2009-01-30T09:11:36Z</time>
      </trkpt>
      <trkpt lat="43.53877" lon="5.54981">
        <ele>435</ele>
        <time>2009-01-30T09:11:50Z</time>
      </trkpt>
      <trkpt lat="43.53882" lon="5.54993">
        <ele>436</ele>
        <time>2009-01-30T09:13:24Z</time>
      </trkpt>
      <trkpt lat="43.53888" lon="5.55002">
        <ele>442</ele>
        <time>2009-01-30T09:13:40Z</time>
      </trkpt>
      <trkpt lat="43.5389" lon="5.55014">
        <ele>442</ele>
        <time>2009-01-30T09:13:54Z</time>
      </trkpt>
      <trkpt lat="43.53896" lon="5.55024">
        <ele>443</ele>
        <time>2009-01-30T09:14:07Z</time>
      </trkpt>
      <trkpt lat="43.53898" lon="5.55036">
        <ele>444</ele>
        <time>2009-01-30T09:14:19Z</time>
      </trkpt>
      <trkpt lat="43.53902" lon="5.55048">
        <ele>445</ele>
        <time>2009-01-30T09:14:29Z</time>
      </trkpt>
      <trkpt lat="43.53905" lon="5.55059">
        <ele>447</ele>
        <time>2009-01-30T09:14:40Z</time>
      </trkpt>
      <trkpt lat="43.53909" lon="5.55071">
        <ele>449</ele>
        <time>2009-01-30T09:14:59Z</time>
      </trkpt>
      <trkpt lat="43.53909" lon="5.55083">
        <ele>454</ele>
        <time>2009-01-30T09:16:09Z</time>
      </trkpt>
      <trkpt lat="43.53913" lon="5.55095">
        <ele>454</ele>
        <time>2009-01-30T09:16:25Z</time>
      </trkpt>
      <trkpt lat="43.53918" lon="5.55105">
        <ele>454</ele>
        <time>2009-01-30T09:16:36Z</time>
      </trkpt>
      <trkpt lat="43.53918" lon="5.55118">
        <ele>454</ele>
        <time>2009-01-30T09:16:47Z</time>
      </trkpt>
      <trkpt lat="43.53914" lon="5.55129">
        <ele>454</ele>
        <time>2009-01-30T09:16:58Z</time>
      </trkpt>
      <trkpt lat="43.53913" lon="5.55142">
        <ele>456</ele>
        <time>2009-01-30T09:17:09Z</time>
      </trkpt>
      <trkpt lat="43.5391" lon="5.55154">
        <ele>458</ele>
        <time>2009-01-30T09:17:19Z</time>
      </trkpt>
      <trkpt lat="43.53911" lon="5.55167">
        <ele>462</ele>
        <time>2009-01-30T09:17:30Z</time>
      </trkpt>
      <trkpt lat="43.53912" lon="5.5518">
        <ele>461</ele>
        <time>2009-01-30T09:17:40Z</time>
      </trkpt>
      <trkpt lat="43.53913" lon="5.55193">
        <ele>460</ele>
        <time>2009-01-30T09:17:50Z</time>
      </trkpt>
      <trkpt lat="43.53916" lon="5.55205">
        <ele>460</ele>
        <time>2009-01-30T09:17:59Z</time>
      </trkpt>
      <trkpt lat="43.53924" lon="5.55213">
        <ele>463</ele>
        <time>2009-01-30T09:18:09Z</time>
      </trkpt>
      <trkpt lat="43.53928" lon="5.55224">
        <ele>464</ele>
        <time>2009-01-30T09:18:16Z</time>
      </trkpt>
      <trkpt lat="43.53928" lon="5.55237">
        <ele>465</ele>
        <time>2009-01-30T09:18:27Z</time>
      </trkpt>
      <trkpt lat="43.53927" lon="5.5525">
        <ele>467</ele>
        <time>2009-01-30T09:18:39Z</time>
      </trkpt>
      <trkpt lat="43.53931" lon="5.55262">
        <ele>470</ele>
        <time>2009-01-30T09:18:53Z</time>
      </trkpt>
      <trkpt lat="43.53929" lon="5.55275">
        <ele>470</ele>
        <time>2009-01-30T09:19:08Z</time>
      </trkpt>
      <trkpt lat="43.53922" lon="5.55284">
        <ele>471</ele>
        <time>2009-01-30T09:19:25Z</time>
      </trkpt>
      <trkpt lat="43.53917" lon="5.55295">
        <ele>472</ele>
        <time>2009-01-30T09:19:38Z</time>
      </trkpt>
      <trkpt lat="43.53921" lon="5.55306">
        <ele>474</ele>
        <time>2009-01-30T09:19:56Z</time>
      </trkpt>
      <trkpt lat="43.53918" lon="5.55318">
        <ele>476</ele>
        <time>2009-01-30T09:20:09Z</time>
      </trkpt>
      <trkpt lat="43.53918" lon="5.5533">
        <ele>480</ele>
        <time>2009-01-30T09:20:21Z</time>
      </trkpt>
      <trkpt lat="43.53918" lon="5.55343">
        <ele>481</ele>
        <time>2009-01-30T09:20:40Z</time>
      </trkpt>
      <trkpt lat="43.53919" lon="5.55356">
        <ele>481</ele>
        <time>2009-01-30T09:21:06Z</time>
      </trkpt>
      <trkpt lat="43.53915" lon="5.55367">
        <ele>486</ele>
        <time>2009-01-30T09:21:25Z</time>
      </trkpt>
      <trkpt lat="43.53911" lon="5.55378">
        <ele>487</ele>
        <time>2009-01-30T09:26:30Z</time>
      </trkpt>
      <trkpt lat="43.53909" lon="5.55391">
        <ele>490</ele>
        <time>2009-01-30T09:26:46Z</time>
      </trkpt>
      <trkpt lat="43.53904" lon="5.55401">
        <ele>491</ele>
        <time>2009-01-30T09:27:07Z</time>
      </trkpt>
      <trkpt lat="43.53898" lon="5.55411">
        <ele>492</ele>
        <time>2009-01-30T09:27:29Z</time>
      </trkpt>
      <trkpt lat="43.53893" lon="5.55422">
        <ele>503</ele>
        <time>2009-01-30T09:27:52Z</time>
      </trkpt>
      <trkpt lat="43.53891" lon="5.55435">
        <ele>504</ele>
        <time>2009-01-30T09:28:13Z</time>
      </trkpt>
      <trkpt lat="43.53886" lon="5.55445">
        <ele>505</ele>
        <time>2009-01-30T09:28:24Z</time>
      </trkpt>
      <trkpt lat="43.53881" lon="5.55456">
        <ele>507</ele>
        <time>2009-01-30T09:28:43Z</time>
      </trkpt>
      <trkpt lat="43.53879" lon="5.55469">
        <ele>508</ele>
        <time>2009-01-30T09:29:06Z</time>
      </trkpt>
      <trkpt lat="43.53876" lon="5.5548">
        <ele>509</ele>
        <time>2009-01-30T09:29:27Z</time>
      </trkpt>
      <trkpt lat="43.53869" lon="5.55488">
        <ele>511</ele>
        <time>2009-01-30T09:29:50Z</time>
      </trkpt>
      <trkpt lat="43.53862" lon="5.55497">
        <ele>512</ele>
        <time>2009-01-30T09:30:06Z</time>
      </trkpt>
      <trkpt lat="43.53859" lon="5.55509">
        <ele>523</ele>
        <time>2009-01-30T09:30:26Z</time>
      </trkpt>
      <trkpt lat="43.53854" lon="5.5552">
        <ele>524</ele>
        <time>2009-01-30T09:30:46Z</time>
      </trkpt>
      <trkpt lat="43.53847" lon="5.55529">
        <ele>525</ele>
        <time>2009-01-30T09:35:51Z</time>
      </trkpt>
      <trkpt lat="43.53846" lon="5.55542">
        <ele>527</ele>
        <time>2009-01-30T09:36:10Z</time>
      </trkpt>
      <trkpt lat="43.53842" lon="5.55554">
        <ele>529</ele>
        <time>2009-01-30T09:36:25Z</time>
      </trkpt>
      <trkpt lat="43.53839" lon="5.55566">
        <ele>532</ele>
        <time>2009-01-30T09:36:46Z</time>
      </trkpt>
      <trkpt lat="43.53844" lon="5.55577">
        <ele>534</ele>
        <time>2009-01-30T09:37:02Z</time>
      </trkpt>
      <trkpt lat="43.53841" lon="5.55588">
        <ele>540</ele>
        <time>2009-01-30T09:37:19Z</time>
      </trkpt>
      <trkpt lat="43.5384" lon="5.55601">
        <ele>541</ele>
        <time>2009-01-30T09:37:37Z</time>
      </trkpt>
      <trkpt lat="43.53839" lon="5.55613">
        <ele>541</ele>
        <time>2009-01-30T09:37:50Z</time>
      </trkpt>
      <trkpt lat="43.53837" lon="5.55625">
        <ele>543</ele>
        <time>2009-01-30T09:38:14Z</time>
      </trkpt>
      <trkpt lat="43.53839" lon="5.55639">
        <ele>545</ele>
        <time>2009-01-30T09:38:31Z</time>
      </trkpt>
      <trkpt lat="43.5384" lon="5.55651">
        <ele>548</ele>
        <time>2009-01-30T09:38:49Z</time>
      </trkpt>
      <trkpt lat="43.53839" lon="5.55664">
        <ele>552</ele>
        <time>2009-01-30T09:39:04Z</time>
      </trkpt>
      <trkpt lat="43.53833" lon="5.55674">
        <ele>555</ele>
        <time>2009-01-30T09:39:20Z</time>
      </trkpt>
      <trkpt lat="43.53831" lon="5.55685">
        <ele>551</ele>
        <time>2009-01-30T09:39:39Z</time>
      </trkpt>
      <trkpt lat="43.53831" lon="5.55698">
        <ele>551</ele>
        <time>2009-01-30T09:41:33Z</time>
      </trkpt>
      <trkpt lat="43.53828" lon="5.5571">
        <ele>551</ele>
        <time>2009-01-30T09:41:51Z</time>
      </trkpt>
      <trkpt lat="43.5382" lon="5.55715">
        <ele>551</ele>
        <time>2009-01-30T09:42:34Z</time>
      </trkpt>
      <trkpt lat="43.53828" lon="5.55721">
        <ele>553</ele>
        <time>2009-01-30T09:45:02Z</time>
      </trkpt>
      <trkpt lat="43.53833" lon="5.55731">
        <ele>559</ele>
        <time>2009-01-30T09:45:20Z</time>
      </trkpt>
      <trkpt lat="43.53839" lon="5.55741">
        <ele>562</ele>
        <time>2009-01-30T09:45:37Z</time>
      </trkpt>
      <trkpt lat="43.53838" lon="5.55754">
        <ele>565</ele>
        <time>2009-01-30T09:45:55Z</time>
      </trkpt>
      <trkpt lat="43.53843" lon="5.55764">
        <ele>564</ele>
        <time>2009-01-30T09:46:11Z</time>
      </trkpt>
      <trkpt lat="43.53847" lon="5.55776">
        <ele>564</ele>
        <time>2009-01-30T09:46:22Z</time>
      </trkpt>
      <trkpt lat="43.53849" lon="5.55788">
        <ele>564</ele>
        <time>2009-01-30T09:46:36Z</time>
      </trkpt>
      <trkpt lat="43.53852" lon="5.558">
        <ele>564</ele>
        <time>2009-01-30T09:46:52Z</time>
      </trkpt>
      <trkpt lat="43.53854" lon="5.55813">
        <ele>565</ele>
        <time>2009-01-30T09:47:04Z</time>
      </trkpt>
      <trkpt lat="43.5385" lon="5.55825">
        <ele>566</ele>
        <time>2009-01-30T09:47:15Z</time>
      </trkpt>
      <trkpt lat="43.53849" lon="5.55837">
        <ele>569</ele>
        <time>2009-01-30T09:47:50Z</time>
      </trkpt>
      <trkpt lat="43.53849" lon="5.5585">
        <ele>569</ele>
        <time>2009-01-30T09:48:05Z</time>
      </trkpt>
      <trkpt lat="43.53851" lon="5.55862">
        <ele>569</ele>
        <time>2009-01-30T09:48:20Z</time>
      </trkpt>
      <trkpt lat="43.53852" lon="5.55876">
        <ele>569</ele>
        <time>2009-01-30T09:48:54Z</time>
      </trkpt>
      <trkpt lat="43.53857" lon="5.55886">
        <ele>569</ele>
        <time>2009-01-30T09:49:03Z</time>
      </trkpt>
      <trkpt lat="43.53858" lon="5.55899">
        <ele>569</ele>
        <time>2009-01-30T09:49:15Z</time>
      </trkpt>
      <trkpt lat="43.53861" lon="5.55912">
        <ele>569</ele>
        <time>2009-01-30T09:49:25Z</time>
      </trkpt>
      <trkpt lat="43.53865" lon="5.55922">
        <ele>572</ele>
        <time>2009-01-30T09:49:35Z</time>
      </trkpt>
      <trkpt lat="43.53868" lon="5.55934">
        <ele>572</ele>
        <time>2009-01-30T09:50:00Z</time>
      </trkpt>
      <trkpt lat="43.53873" lon="5.55945">
        <ele>572</ele>
        <time>2009-01-30T09:50:11Z</time>
      </trkpt>
      <trkpt lat="43.53873" lon="5.55957">
        <ele>573</ele>
        <time>2009-01-30T09:50:25Z</time>
      </trkpt>
      <trkpt lat="43.53875" lon="5.5597">
        <ele>573</ele>
        <time>2009-01-30T09:50:38Z</time>
      </trkpt>
      <trkpt lat="43.53874" lon="5.55983">
        <ele>574</ele>
        <time>2009-01-30T09:50:53Z</time>
      </trkpt>
      <trkpt lat="43.53875" lon="5.55995">
        <ele>574</ele>
        <time>2009-01-30T09:51:06Z</time>
      </trkpt>
      <trkpt lat="43.53877" lon="5.56008">
        <ele>579</ele>
        <time>2009-01-30T09:51:18Z</time>
      </trkpt>
      <trkpt lat="43.53877" lon="5.5602">
        <ele>579</ele>
        <time>2009-01-30T09:51:33Z</time>
      </trkpt>
      <trkpt lat="43.53875" lon="5.56033">
        <ele>580</ele>
        <time>2009-01-30T09:51:46Z</time>
      </trkpt>
      <trkpt lat="43.53873" lon="5.56046">
        <ele>580</ele>
        <time>2009-01-30T09:51:59Z</time>
      </trkpt>
      <trkpt lat="43.53876" lon="5.56057">
        <ele>581</ele>
        <time>2009-01-30T09:52:09Z</time>
      </trkpt>
      <trkpt lat="43.53878" lon="5.56072">
        <ele>581</ele>
        <time>2009-01-30T09:52:19Z</time>
      </trkpt>
      <trkpt lat="43.53879" lon="5.56084">
        <ele>584</ele>
        <time>2009-01-30T09:52:29Z</time>
      </trkpt>
      <trkpt lat="43.53879" lon="5.56098">
        <ele>584</ele>
        <time>2009-01-30T09:52:41Z</time>
      </trkpt>
      <trkpt lat="43.53877" lon="5.5611">
        <ele>584</ele>
        <time>2009-01-30T09:52:50Z</time>
      </trkpt>
      <trkpt lat="43.53873" lon="5.56123">
        <ele>583</ele>
        <time>2009-01-30T09:53:01Z</time>
      </trkpt>
      <trkpt lat="43.53865" lon="5.56136">
        <ele>583</ele>
        <time>2009-01-30T09:53:10Z</time>
      </trkpt>
      <trkpt lat="43.53857" lon="5.56143">
        <ele>583</ele>
        <time>2009-01-30T09:53:26Z</time>
      </trkpt>
      <trkpt lat="43.5385" lon="5.56151">
        <ele>583</ele>
        <time>2009-01-30T09:53:34Z</time>
      </trkpt>
      <trkpt lat="43.53844" lon="5.56161">
        <ele>583</ele>
        <time>2009-01-30T09:53:45Z</time>
      </trkpt>
      <trkpt lat="43.53841" lon="5.56174">
        <ele>582</ele>
        <time>2009-01-30T09:53:57Z</time>
      </trkpt>
      <trkpt lat="43.53835" lon="5.56185">
        <ele>581</ele>
        <time>2009-01-30T09:54:08Z</time>
      </trkpt>
      <trkpt lat="43.53833" lon="5.56198">
        <ele>568</ele>
        <time>2009-01-30T09:56:16Z</time>
      </trkpt>
      <trkpt lat="43.5383" lon="5.5621">
        <ele>567</ele>
        <time>2009-01-30T09:56:25Z</time>
      </trkpt>
      <trkpt lat="43.53829" lon="5.56223">
        <ele>568</ele>
        <time>2009-01-30T09:56:40Z</time>
      </trkpt>
      <trkpt lat="43.5383" lon="5.56235">
        <ele>571</ele>
        <time>2009-01-30T09:56:49Z</time>
      </trkpt>
      <trkpt lat="43.5383" lon="5.56248">
        <ele>578</ele>
        <time>2009-01-30T09:56:59Z</time>
      </trkpt>
      <trkpt lat="43.5383" lon="5.5626">
        <ele>574</ele>
        <time>2009-01-30T09:57:08Z</time>
      </trkpt>
      <trkpt lat="43.53833" lon="5.56272">
        <ele>570</ele>
        <time>2009-01-30T09:57:17Z</time>
      </trkpt>
      <trkpt lat="43.53835" lon="5.56284">
        <ele>576</ele>
        <time>2009-01-30T09:57:26Z</time>
      </trkpt>
      <trkpt lat="43.53835" lon="5.56298">
        <ele>576</ele>
        <time>2009-01-30T09:57:37Z</time>
      </trkpt>
      <trkpt lat="43.53833" lon="5.56311">
        <ele>570</ele>
        <time>2009-01-30T09:57:45Z</time>
      </trkpt>
      <trkpt lat="43.53828" lon="5.56322">
        <ele>573</ele>
        <time>2009-01-30T09:57:51Z</time>
      </trkpt>
      <trkpt lat="43.53828" lon="5.56335">
        <ele>576</ele>
        <time>2009-01-30T10:01:33Z</time>
      </trkpt>
      <trkpt lat="43.5383" lon="5.56346">
        <ele>573</ele>
        <time>2009-01-30T10:01:43Z</time>
      </trkpt>
      <trkpt lat="43.53831" lon="5.56359">
        <ele>569</ele>
        <time>2009-01-30T10:01:52Z</time>
      </trkpt>
      <trkpt lat="43.53833" lon="5.56373">
        <ele>578</ele>
        <time>2009-01-30T10:02:04Z</time>
      </trkpt>
      <trkpt lat="43.53836" lon="5.56386">
        <ele>578</ele>
        <time>2009-01-30T10:02:13Z</time>
      </trkpt>
      <trkpt lat="43.53839" lon="5.56398">
        <ele>579</ele>
        <time>2009-01-30T10:02:23Z</time>
      </trkpt>
      <trkpt lat="43.53841" lon="5.56411">
        <ele>580</ele>
        <time>2009-01-30T10:02:33Z</time>
      </trkpt>
      <trkpt lat="43.53842" lon="5.56424">
        <ele>584</ele>
        <time>2009-01-30T10:02:41Z</time>
      </trkpt>
      <trkpt lat="43.53845" lon="5.56435">
        <ele>585</ele>
        <time>2009-01-30T10:02:56Z</time>
      </trkpt>
      <trkpt lat="43.53844" lon="5.56448">
        <ele>587</ele>
        <time>2009-01-30T10:03:09Z</time>
      </trkpt>
      <trkpt lat="43.53848" lon="5.5646">
        <ele>588</ele>
        <time>2009-01-30T10:03:24Z</time>
      </trkpt>
      <trkpt lat="43.5385" lon="5.56471">
        <ele>589</ele>
        <time>2009-01-30T10:03:34Z</time>
      </trkpt>
      <trkpt lat="43.53853" lon="5.56483">
        <ele>590</ele>
        <time>2009-01-30T10:03:47Z</time>
      </trkpt>
      <trkpt lat="43.53852" lon="5.56496">
        <ele>590</ele>
        <time>2009-01-30T10:04:02Z</time>
      </trkpt>
      <trkpt lat="43.53854" lon="5.56509">
        <ele>597</ele>
        <time>2009-01-30T10:04:14Z</time>
      </trkpt>
      <trkpt lat="43.53856" lon="5.56522">
        <ele>598</ele>
        <time>2009-01-30T10:04:29Z</time>
      </trkpt>
      <trkpt lat="43.53858" lon="5.56535">
        <ele>599</ele>
        <time>2009-01-30T10:04:43Z</time>
      </trkpt>
      <trkpt lat="43.53863" lon="5.56545">
        <ele>600</ele>
        <time>2009-01-30T10:04:55Z</time>
      </trkpt>
      <trkpt lat="43.53864" lon="5.56558">
        <ele>601</ele>
        <time>2009-01-30T10:05:12Z</time>
      </trkpt>
      <trkpt lat="43.53862" lon="5.5657">
        <ele>601</ele>
        <time>2009-01-30T10:05:34Z</time>
      </trkpt>
      <trkpt lat="43.5386" lon="5.56583">
        <ele>602</ele>
        <time>2009-01-30T10:05:47Z</time>
      </trkpt>
      <trkpt lat="43.53859" lon="5.56595">
        <ele>606</ele>
        <time>2009-01-30T10:06:02Z</time>
      </trkpt>
      <trkpt lat="43.5386" lon="5.56609">
        <ele>606</ele>
        <time>2009-01-30T10:06:15Z</time>
      </trkpt>
      <trkpt lat="43.53861" lon="5.56621">
        <ele>606</ele>
        <time>2009-01-30T10:06:26Z</time>
      </trkpt>
      <trkpt lat="43.53858" lon="5.56634">
        <ele>607</ele>
        <time>2009-01-30T10:06:38Z</time>
      </trkpt>
      <trkpt lat="43.53854" lon="5.56646">
        <ele>607</ele>
        <time>2009-01-30T10:07:01Z</time>
      </trkpt>
      <trkpt lat="43.5385" lon="5.56657">
        <ele>607</ele>
        <time>2009-01-30T10:07:28Z</time>
      </trkpt>
      <trkpt lat="43.5385" lon="5.5667">
        <ele>609</ele>
        <time>2009-01-30T10:07:58Z</time>
      </trkpt>
      <trkpt lat="43.53852" lon="5.56682">
        <ele>610</ele>
        <time>2009-01-30T10:08:13Z</time>
      </trkpt>
      <trkpt lat="43.53852" lon="5.56695">
        <ele>611</ele>
        <time>2009-01-30T10:08:28Z</time>
      </trkpt>
      <trkpt lat="43.53848" lon="5.56707">
        <ele>612</ele>
        <time>2009-01-30T10:08:43Z</time>
      </trkpt>
      <trkpt lat="43.53844" lon="5.56717">
        <ele>613</ele>
        <time>2009-01-30T10:08:56Z</time>
      </trkpt>
      <trkpt lat="43.53839" lon="5.56728">
        <ele>615</ele>
        <time>2009-01-30T10:09:10Z</time>
      </trkpt>
      <trkpt lat="43.53836" lon="5.5674">
        <ele>617</ele>
        <time>2009-01-30T10:09:23Z</time>
      </trkpt>
      <trkpt lat="43.53835" lon="5.56753">
        <ele>620</ele>
        <time>2009-01-30T10:09:41Z</time>
      </trkpt>
      <trkpt lat="43.5383" lon="5.56762">
        <ele>616</ele>
        <time>2009-01-30T10:09:51Z</time>
      </trkpt>
      <trkpt lat="43.53826" lon="5.56773">
        <ele>614</ele>
        <time>2009-01-30T10:10:22Z</time>
      </trkpt>
      <trkpt lat="43.53825" lon="5.56786">
        <ele>614</ele>
        <time>2009-01-30T10:10:38Z</time>
      </trkpt>
      <trkpt lat="43.53822" lon="5.56798">
        <ele>615</ele>
        <time>2009-01-30T10:10:52Z</time>
      </trkpt>
      <trkpt lat="43.53816" lon="5.56809">
        <ele>616</ele>
        <time>2009-01-30T10:11:07Z</time>
      </trkpt>
      <trkpt lat="43.53811" lon="5.56819">
        <ele>617</ele>
        <time>2009-01-30T10:11:24Z</time>
      </trkpt>
      <trkpt lat="43.53805" lon="5.56829">
        <ele>616</ele>
        <time>2009-01-30T10:11:35Z</time>
      </trkpt>
      <trkpt lat="43.53801" lon="5.5684">
        <ele>623</ele>
        <time>2009-01-30T10:11:47Z</time>
      </trkpt>
      <trkpt lat="43.53796" lon="5.5685">
        <ele>623</ele>
        <time>2009-01-30T10:12:00Z</time>
      </trkpt>
      <trkpt lat="43.5379" lon="5.5686">
        <ele>622</ele>
        <time>2009-01-30T10:12:12Z</time>
      </trkpt>
      <trkpt lat="43.53785" lon="5.5687">
        <ele>623</ele>
        <time>2009-01-30T10:12:26Z</time>
      </trkpt>
      <trkpt lat="43.53779" lon="5.56879">
        <ele>623</ele>
        <time>2009-01-30T10:12:36Z</time>
      </trkpt>
      <trkpt lat="43.53779" lon="5.56892">
        <ele>625</ele>
        <time>2009-01-30T10:12:47Z</time>
      </trkpt>
      <trkpt lat="43.53771" lon="5.56898">
        <ele>626</ele>
        <time>2009-01-30T10:13:36Z</time>
      </trkpt>
      <trkpt lat="43.53764" lon="5.56908">
        <ele>628</ele>
        <time>2009-01-30T10:13:48Z</time>
      </trkpt>
      <trkpt lat="43.53758" lon="5.56917">
        <ele>633</ele>
        <time>2009-01-30T10:14:32Z</time>
      </trkpt>
      <trkpt lat="43.53752" lon="5.56928">
        <ele>633</ele>
        <time>2009-01-30T10:15:49Z</time>
      </trkpt>
      <trkpt lat="43.5375" lon="5.56939">
        <ele>633</ele>
        <time>2009-01-30T10:16:07Z</time>
      </trkpt>
      <trkpt lat="43.53752" lon="5.56952">
        <ele>633</ele>
        <time>2009-01-30T10:16:26Z</time>
      </trkpt>
      <trkpt lat="43.53747" lon="5.56964">
        <ele>635</ele>
        <time>2009-01-30T10:16:40Z</time>
      </trkpt>
      <trkpt lat="43.53745" lon="5.56975">
        <ele>637</ele>
        <time>2009-01-30T10:16:55Z</time>
      </trkpt>
      <trkpt lat="43.53739" lon="5.56985">
        <ele>639</ele>
        <time>2009-01-30T10:17:07Z</time>
      </trkpt>
      <trkpt lat="43.53732" lon="5.56994">
        <ele>639</ele>
        <time>2009-01-30T10:17:17Z</time>
      </trkpt>
      <trkpt lat="43.53726" lon="5.57003">
        <ele>648</ele>
        <time>2009-01-30T10:17:28Z</time>
      </trkpt>
      <trkpt lat="43.53719" lon="5.57013">
        <ele>648</ele>
        <time>2009-01-30T10:17:45Z</time>
      </trkpt>
      <trkpt lat="43.53711" lon="5.57017">
        <ele>648</ele>
        <time>2009-01-30T10:17:58Z</time>
      </trkpt>
      <trkpt lat="43.53703" lon="5.57024">
        <ele>649</ele>
        <time>2009-01-30T10:18:18Z</time>
      </trkpt>
      <trkpt lat="43.53696" lon="5.57032">
        <ele>650</ele>
        <time>2009-01-30T10:18:35Z</time>
      </trkpt>
      <trkpt lat="43.53694" lon="5.57044">
        <ele>651</ele>
        <time>2009-01-30T10:18:51Z</time>
      </trkpt>
      <trkpt lat="43.53689" lon="5.57055">
        <ele>654</ele>
        <time>2009-01-30T10:19:05Z</time>
      </trkpt>
      <trkpt lat="43.53682" lon="5.57062">
        <ele>656</ele>
        <time>2009-01-30T10:20:39Z</time>
      </trkpt>
      <trkpt lat="43.53673" lon="5.57067">
        <ele>659</ele>
        <time>2009-01-30T10:20:52Z</time>
      </trkpt>
      <trkpt lat="43.53666" lon="5.57074">
        <ele>663</ele>
        <time>2009-01-30T10:21:20Z</time>
      </trkpt>
      <trkpt lat="43.53659" lon="5.57081">
        <ele>663</ele>
        <time>2009-01-30T10:22:02Z</time>
      </trkpt>
      <trkpt lat="43.53658" lon="5.57094">
        <ele>671</ele>
        <time>2009-01-30T10:22:22Z</time>
      </trkpt>
      <trkpt lat="43.53659" lon="5.57106">
        <ele>673</ele>
        <time>2009-01-30T10:22:42Z</time>
      </trkpt>
      <trkpt lat="43.53656" lon="5.57118">
        <ele>674</ele>
        <time>2009-01-30T10:22:57Z</time>
      </trkpt>
      <trkpt lat="43.53651" lon="5.57129">
        <ele>676</ele>
        <time>2009-01-30T10:23:07Z</time>
      </trkpt>
      <trkpt lat="43.53653" lon="5.57141">
        <ele>677</ele>
        <time>2009-01-30T10:23:21Z</time>
      </trkpt>
      <trkpt lat="43.53649" lon="5.57153">
        <ele>679</ele>
        <time>2009-01-30T10:23:33Z</time>
      </trkpt>
      <trkpt lat="43.53641" lon="5.57157">
        <ele>679</ele>
        <time>2009-01-30T10:24:12Z</time>
      </trkpt>
      <trkpt lat="43.53633" lon="5.57163">
        <ele>679</ele>
        <time>2009-01-30T10:24:40Z</time>
      </trkpt>
      <trkpt lat="43.53628" lon="5.57174">
        <ele>690</ele>
        <time>2009-01-30T10:24:59Z</time>
      </trkpt>
      <trkpt lat="43.5362" lon="5.5718">
        <ele>691</ele>
        <time>2009-01-30T10:25:16Z</time>
      </trkpt>
      <trkpt lat="43.53613" lon="5.5719">
        <ele>692</ele>
        <time>2009-01-30T10:25:48Z</time>
      </trkpt>
      <trkpt lat="43.53605" lon="5.57197">
        <ele>693</ele>
        <time>2009-01-30T10:26:07Z</time>
      </trkpt>
      <trkpt lat="43.53598" lon="5.57204">
        <ele>694</ele>
        <time>2009-01-30T10:26:23Z</time>
      </trkpt>
      <trkpt lat="43.53588" lon="5.57204">
        <ele>695</ele>
        <time>2009-01-30T10:26:42Z</time>
      </trkpt>
      <trkpt lat="43.53579" lon="5.57205">
        <ele>699</ele>
        <time>2009-01-30T10:28:13Z</time>
      </trkpt>
      <trkpt lat="43.53571" lon="5.57212">
        <ele>700</ele>
        <time>2009-01-30T10:28:26Z</time>
      </trkpt>
      <trkpt lat="43.53566" lon="5.57223">
        <ele>702</ele>
        <time>2009-01-30T10:28:40Z</time>
      </trkpt>
      <trkpt lat="43.5356" lon="5.57233">
        <ele>704</ele>
        <time>2009-01-30T10:28:53Z</time>
      </trkpt>
      <trkpt lat="43.53553" lon="5.57242">
        <ele>705</ele>
        <time>2009-01-30T10:29:08Z</time>
      </trkpt>
      <trkpt lat="43.53546" lon="5.57249">
        <ele>705</ele>
        <time>2009-01-30T10:29:20Z</time>
      </trkpt>
      <trkpt lat="43.53539" lon="5.57256">
        <ele>721</ele>
        <time>2009-01-30T10:29:31Z</time>
      </trkpt>
      <trkpt lat="43.53532" lon="5.57265">
        <ele>722</ele>
        <time>2009-01-30T10:29:43Z</time>
      </trkpt>
      <trkpt lat="43.53529" lon="5.57278">
        <ele>723</ele>
        <time>2009-01-30T10:29:55Z</time>
      </trkpt>
      <trkpt lat="43.5352" lon="5.57283">
        <ele>724</ele>
        <time>2009-01-30T10:30:09Z</time>
      </trkpt>
      <trkpt lat="43.53514" lon="5.57292">
        <ele>725</ele>
        <time>2009-01-30T10:30:22Z</time>
      </trkpt>
      <trkpt lat="43.53507" lon="5.57301">
        <ele>727</ele>
        <time>2009-01-30T10:33:16Z</time>
      </trkpt>
      <trkpt lat="43.53499" lon="5.57305">
        <ele>732</ele>
        <time>2009-01-30T10:33:31Z</time>
      </trkpt>
      <trkpt lat="43.5349" lon="5.57312">
        <ele>733</ele>
        <time>2009-01-30T10:33:51Z</time>
      </trkpt>
      <trkpt lat="43.53481" lon="5.57317">
        <ele>733</ele>
        <time>2009-01-30T10:34:15Z</time>
      </trkpt>
      <trkpt lat="43.53475" lon="5.57327">
        <ele>734</ele>
        <time>2009-01-30T10:34:36Z</time>
      </trkpt>
      <trkpt lat="43.53467" lon="5.57334">
        <ele>745</ele>
        <time>2009-01-30T10:34:54Z</time>
      </trkpt>
      <trkpt lat="43.5346" lon="5.57341">
        <ele>746</ele>
        <time>2009-01-30T10:35:11Z</time>
      </trkpt>
      <trkpt lat="43.53456" lon="5.57352">
        <ele>746</ele>
        <time>2009-01-30T10:35:43Z</time>
      </trkpt>
      <trkpt lat="43.53447" lon="5.57355">
        <ele>747</ele>
        <time>2009-01-30T10:36:05Z</time>
      </trkpt>
      <trkpt lat="43.53439" lon="5.57362">
        <ele>748</ele>
        <time>2009-01-30T10:36:22Z</time>
      </trkpt>
      <trkpt lat="43.53431" lon="5.57365">
        <ele>748</ele>
        <time>2009-01-30T10:36:36Z</time>
      </trkpt>
      <trkpt lat="43.53422" lon="5.57364">
        <ele>749</ele>
        <time>2009-01-30T10:36:58Z</time>
      </trkpt>
      <trkpt lat="43.53413" lon="5.57361">
        <ele>752</ele>
        <time>2009-01-30T10:37:11Z</time>
      </trkpt>
      <trkpt lat="43.53405" lon="5.57368">
        <ele>754</ele>
        <time>2009-01-30T10:37:28Z</time>
      </trkpt>
      <trkpt lat="43.53399" lon="5.57378">
        <ele>756</ele>
        <time>2009-01-30T10:37:53Z</time>
      </trkpt>
      <trkpt lat="43.534" lon="5.5739">
        <ele>758</ele>
        <time>2009-01-30T10:38:15Z</time>
      </trkpt>
      <trkpt lat="43.53396" lon="5.57402">
        <ele>760</ele>
        <time>2009-01-30T10:38:32Z</time>
      </trkpt>
      <trkpt lat="43.53388" lon="5.57409">
        <ele>761</ele>
        <time>2009-01-30T10:41:22Z</time>
      </trkpt>
      <trkpt lat="43.53379" lon="5.57413">
        <ele>761</ele>
        <time>2009-01-30T10:41:43Z</time>
      </trkpt>
      <trkpt lat="43.53377" lon="5.57425">
        <ele>778</ele>
        <time>2009-01-30T10:42:02Z</time>
      </trkpt>
      <trkpt lat="43.53373" lon="5.57437">
        <ele>780</ele>
        <time>2009-01-30T10:42:15Z</time>
      </trkpt>
      <trkpt lat="43.53364" lon="5.57442">
        <ele>781</ele>
        <time>2009-01-30T10:42:33Z</time>
      </trkpt>
      <trkpt lat="43.53358" lon="5.57451">
        <ele>783</ele>
        <time>2009-01-30T10:42:50Z</time>
      </trkpt>
      <trkpt lat="43.5336" lon="5.57464">
        <ele>784</ele>
        <time>2009-01-30T10:43:09Z</time>
      </trkpt>
      <trkpt lat="43.53351" lon="5.57458">
        <ele>785</ele>
        <time>2009-01-30T10:43:44Z</time>
      </trkpt>
      <trkpt lat="43.53342" lon="5.57457">
        <ele>785</ele>
        <time>2009-01-30T10:44:08Z</time>
      </trkpt>
      <trkpt lat="43.53333" lon="5.57459">
        <ele>794</ele>
        <time>2009-01-30T10:44:33Z</time>
      </trkpt>
      <trkpt lat="43.53328" lon="5.57468">
        <ele>797</ele>
        <time>2009-01-30T10:46:33Z</time>
      </trkpt>
      <trkpt lat="43.53319" lon="5.57474">
        <ele>798</ele>
        <time>2009-01-30T10:47:02Z</time>
      </trkpt>
      <trkpt lat="43.53311" lon="5.5748">
        <ele>799</ele>
        <time>2009-01-30T10:47:21Z</time>
      </trkpt>
      <trkpt lat="43.53302" lon="5.57485">
        <ele>799</ele>
        <time>2009-01-30T10:47:36Z</time>
      </trkpt>
      <trkpt lat="43.53298" lon="5.57496">
        <ele>801</ele>
        <time>2009-01-30T10:48:02Z</time>
      </trkpt>
      <trkpt lat="43.53292" lon="5.57505">
        <ele>820</ele>
        <time>2009-01-30T10:48:24Z</time>
      </trkpt>
      <trkpt lat="43.53285" lon="5.57514">
        <ele>821</ele>
        <time>2009-01-30T10:48:41Z</time>
      </trkpt>
      <trkpt lat="43.53279" lon="5.57524">
        <ele>822</ele>
        <time>2009-01-30T10:48:58Z</time>
      </trkpt>
      <trkpt lat="43.5327" lon="5.57529">
        <ele>824</ele>
        <time>2009-01-30T10:49:20Z</time>
      </trkpt>
      <trkpt lat="43.53265" lon="5.57539">
        <ele>825</ele>
        <time>2009-01-30T10:49:36Z</time>
      </trkpt>
      <trkpt lat="43.53258" lon="5.57548">
        <ele>828</ele>
        <time>2009-01-30T10:50:11Z</time>
      </trkpt>
      <trkpt lat="43.53249" lon="5.57556">
        <ele>832</ele>
        <time>2009-01-30T10:51:54Z</time>
      </trkpt>
      <trkpt lat="43.53243" lon="5.57566">
        <ele>835</ele>
        <time>2009-01-30T10:52:15Z</time>
      </trkpt>
      <trkpt lat="43.53237" lon="5.57576">
        <ele>836</ele>
        <time>2009-01-30T10:52:30Z</time>
      </trkpt>
      <trkpt lat="43.53228" lon="5.57579">
        <ele>833</ele>
        <time>2009-01-30T10:53:08Z</time>
      </trkpt>
      <trkpt lat="43.53224" lon="5.57591">
        <ele>840</ele>
        <time>2009-01-30T10:53:34Z</time>
      </trkpt>
      <trkpt lat="43.53217" lon="5.576">
        <ele>839</ele>
        <time>2009-01-30T10:53:56Z</time>
      </trkpt>
      <trkpt lat="43.53217" lon="5.57612">
        <ele>839</ele>
        <time>2009-01-30T10:56:26Z</time>
      </trkpt>
      <trkpt lat="43.53213" lon="5.57624">
        <ele>839</ele>
        <time>2009-01-30T10:56:37Z</time>
      </trkpt>
      <trkpt lat="43.53211" lon="5.57636">
        <ele>839</ele>
        <time>2009-01-30T10:56:50Z</time>
      </trkpt>
      <trkpt lat="43.53209" lon="5.5765">
        <ele>839</ele>
        <time>2009-01-30T10:57:02Z</time>
      </trkpt>
      <trkpt lat="43.53205" lon="5.57662">
        <ele>839</ele>
        <time>2009-01-30T10:57:14Z</time>
      </trkpt>
      <trkpt lat="43.53201" lon="5.57672">
        <ele>844</ele>
        <time>2009-01-30T10:57:27Z</time>
      </trkpt>
      <trkpt lat="43.53199" lon="5.57685">
        <ele>845</ele>
        <time>2009-01-30T10:57:36Z</time>
      </trkpt>
      <trkpt lat="43.53196" lon="5.57698">
        <ele>846</ele>
        <time>2009-01-30T10:57:46Z</time>
      </trkpt>
      <trkpt lat="43.53193" lon="5.5771">
        <ele>847</ele>
        <time>2009-01-30T10:57:57Z</time>
      </trkpt>
      <trkpt lat="43.53188" lon="5.57721">
        <ele>848</ele>
        <time>2009-01-30T10:58:09Z</time>
      </trkpt>
      <trkpt lat="43.53186" lon="5.57733">
        <ele>849</ele>
        <time>2009-01-30T10:58:18Z</time>
      </trkpt>
      <trkpt lat="43.53186" lon="5.57746">
        <ele>851</ele>
        <time>2009-01-30T10:58:28Z</time>
      </trkpt>
      <trkpt lat="43.53186" lon="5.5776">
        <ele>855</ele>
        <time>2009-01-30T10:58:38Z</time>
      </trkpt>
      <trkpt lat="43.53186" lon="5.57773">
        <ele>856</ele>
        <time>2009-01-30T10:58:48Z</time>
      </trkpt>
      <trkpt lat="43.53184" lon="5.57787">
        <ele>857</ele>
        <time>2009-01-30T10:58:56Z</time>
      </trkpt>
      <trkpt lat="43.53182" lon="5.57799">
        <ele>858</ele>
        <time>2009-01-30T10:59:03Z</time>
      </trkpt>
      <trkpt lat="43.53179" lon="5.57811">
        <ele>860</ele>
        <time>2009-01-30T10:59:16Z</time>
      </trkpt>
      <trkpt lat="43.53188" lon="5.57807">
        <ele>859</ele>
        <time>2009-01-30T11:00:47Z</time>
      </trkpt>
      <trkpt lat="43.5318" lon="5.57803">
        <ele>859</ele>
        <time>2009-01-30T11:00:55Z</time>
      </trkpt>
      <trkpt lat="43.53171" lon="5.57809">
        <ele>861</ele>
        <time>2009-01-30T11:01:03Z</time>
      </trkpt>
      <trkpt lat="43.53162" lon="5.57809">
        <ele>851</ele>
        <time>2009-01-30T11:01:09Z</time>
      </trkpt>
      <trkpt lat="43.53165" lon="5.57822">
        <ele>858</ele>
        <time>2009-01-30T11:01:57Z</time>
      </trkpt>
      <trkpt lat="43.5316" lon="5.57832">
        <ele>862</ele>
        <time>2009-01-30T11:02:07Z</time>
      </trkpt>
      <trkpt lat="43.53152" lon="5.5784">
        <ele>862</ele>
        <time>2009-01-30T11:02:19Z</time>
      </trkpt>
      <trkpt lat="43.53146" lon="5.57849">
        <ele>859</ele>
        <time>2009-01-30T11:02:26Z</time>
      </trkpt>
      <trkpt lat="43.53139" lon="5.57857">
        <ele>856</ele>
        <time>2009-01-30T11:02:50Z</time>
      </trkpt>
      <trkpt lat="43.53147" lon="5.57877">
        <ele>859</ele>
        <time>2009-01-30T11:03:26Z</time>
      </trkpt>
      <trkpt lat="43.5314" lon="5.57885">
        <ele>858</ele>
        <time>2009-01-30T11:03:27Z</time>
      </trkpt>
      <trkpt lat="43.53145" lon="5.5787">
        <ele>858</ele>
        <time>2009-01-30T11:03:33Z</time>
      </trkpt>
      <trkpt lat="43.53149" lon="5.57858">
        <ele>859</ele>
        <time>2009-01-30T11:03:34Z</time>
      </trkpt>
      <trkpt lat="43.53152" lon="5.57847">
        <ele>861</ele>
        <time>2009-01-30T11:03:53Z</time>
      </trkpt>
      <trkpt lat="43.53155" lon="5.57834">
        <ele>863</ele>
        <time>2009-01-30T11:04:10Z</time>
      </trkpt>
      <trkpt lat="43.53147" lon="5.57841">
        <ele>859</ele>
        <time>2009-01-30T11:04:39Z</time>
      </trkpt>
      <trkpt lat="43.53147" lon="5.57854">
        <ele>859</ele>
        <time>2009-01-30T11:04:51Z</time>
      </trkpt>
      <trkpt lat="43.53156" lon="5.57851">
        <ele>861</ele>
        <time>2009-01-30T11:05:10Z</time>
      </trkpt>
      <trkpt lat="43.53166" lon="5.57848">
        <ele>863</ele>
        <time>2009-01-30T11:05:29Z</time>
      </trkpt>
      <trkpt lat="43.53176" lon="5.57852">
        <ele>865</ele>
        <time>2009-01-30T11:05:41Z</time>
      </trkpt>
      <trkpt lat="43.53172" lon="5.57865">
        <ele>865</ele>
        <time>2009-01-30T11:05:55Z</time>
      </trkpt>
      <trkpt lat="43.5317" lon="5.57877">
        <ele>865</ele>
        <time>2009-01-30T11:06:10Z</time>
      </trkpt>
      <trkpt lat="43.53162" lon="5.57883">
        <ele>863</ele>
        <time>2009-01-30T11:06:37Z</time>
      </trkpt>
      <trkpt lat="43.53154" lon="5.5789">
        <ele>863</ele>
        <time>2009-01-30T11:07:03Z</time>
      </trkpt>
      <trkpt lat="43.53149" lon="5.57878">
        <ele>860</ele>
        <time>2009-01-30T11:07:39Z</time>
      </trkpt>
      <trkpt lat="43.53146" lon="5.5789">
        <ele>861</ele>
        <time>2009-01-30T11:08:33Z</time>
      </trkpt>
      <trkpt lat="43.53144" lon="5.57902">
        <ele>863</ele>
        <time>2009-01-30T11:09:31Z</time>
      </trkpt>
      <trkpt lat="43.5314" lon="5.57914">
        <ele>863</ele>
        <time>2009-01-30T11:09:44Z</time>
      </trkpt>
      <trkpt lat="43.53135" lon="5.57924">
        <ele>868</ele>
        <time>2009-01-30T11:10:07Z</time>
      </trkpt>
      <trkpt lat="43.53132" lon="5.57936">
        <ele>868</ele>
        <time>2009-01-30T11:10:26Z</time>
      </trkpt>
      <trkpt lat="43.53132" lon="5.57949">
        <ele>868</ele>
        <time>2009-01-30T11:11:01Z</time>
      </trkpt>
      <trkpt lat="43.53124" lon="5.57956">
        <ele>867</ele>
        <time>2009-01-30T11:11:42Z</time>
      </trkpt>
      <trkpt lat="43.5312" lon="5.57969">
        <ele>867</ele>
        <time>2009-01-30T11:11:55Z</time>
      </trkpt>
      <trkpt lat="43.53115" lon="5.5798">
        <ele>867</ele>
        <time>2009-01-30T11:12:12Z</time>
      </trkpt>
      <trkpt lat="43.53112" lon="5.57991">
        <ele>867</ele>
        <time>2009-01-30T11:12:27Z</time>
      </trkpt>
      <trkpt lat="43.53109" lon="5.58003">
        <ele>876</ele>
        <time>2009-01-30T11:12:39Z</time>
      </trkpt>
      <trkpt lat="43.53105" lon="5.58015">
        <ele>877</ele>
        <time>2009-01-30T11:12:57Z</time>
      </trkpt>
      <trkpt lat="43.53101" lon="5.58004">
        <ele>873</ele>
        <time>2009-01-30T11:13:59Z</time>
      </trkpt>
      <trkpt lat="43.53092" lon="5.58003">
        <ele>868</ele>
        <time>2009-01-30T11:15:58Z</time>
      </trkpt>
      <trkpt lat="43.53087" lon="5.58015">
        <ele>872</ele>
        <time>2009-01-30T11:16:27Z</time>
      </trkpt>
      <trkpt lat="43.5309" lon="5.58003">
        <ele>867</ele>
        <time>2009-01-30T11:17:38Z</time>
      </trkpt>
      <trkpt lat="43.53099" lon="5.58003">
        <ele>872</ele>
        <time>2009-01-30T11:18:42Z</time>
      </trkpt>
      <trkpt lat="43.53103" lon="5.58015">
        <ele>876</ele>
        <time>2009-01-30T11:19:00Z</time>
      </trkpt>
      <trkpt lat="43.53107" lon="5.58004">
        <ele>876</ele>
        <time>2009-01-30T11:21:12Z</time>
      </trkpt>
      <trkpt lat="43.53107" lon="5.57991">
        <ele>866</ele>
        <time>2009-01-30T11:21:37Z</time>
      </trkpt>
      <trkpt lat="43.53113" lon="5.57981">
        <ele>866</ele>
        <time>2009-01-30T11:22:09Z</time>
      </trkpt>
      <trkpt lat="43.53117" lon="5.5797">
        <ele>866</ele>
        <time>2009-01-30T11:23:12Z</time>
      </trkpt>
      <trkpt lat="43.53124" lon="5.57963">
        <ele>867</ele>
        <time>2009-01-30T11:23:25Z</time>
      </trkpt>
      <trkpt lat="43.53127" lon="5.57951">
        <ele>867</ele>
        <time>2009-01-30T11:23:37Z</time>
      </trkpt>
      <trkpt lat="43.5313" lon="5.57939">
        <ele>867</ele>
        <time>2009-01-30T11:23:56Z</time>
      </trkpt>
      <trkpt lat="43.53134" lon="5.57928">
        <ele>868</ele>
        <time>2009-01-30T11:24:26Z</time>
      </trkpt>
      <trkpt lat="43.53137" lon="5.57917">
        <ele>869</ele>
        <time>2009-01-30T11:25:16Z</time>
      </trkpt>
      <trkpt lat="43.53144" lon="5.5791">
        <ele>864</ele>
        <time>2009-01-30T11:26:30Z</time>
      </trkpt>
      <trkpt lat="43.53147" lon="5.57898">
        <ele>863</ele>
        <time>2009-01-30T11:26:59Z</time>
      </trkpt>
      <trkpt lat="43.53144" lon="5.57886">
        <ele>860</ele>
        <time>2009-01-30T11:27:21Z</time>
      </trkpt>
      <trkpt lat="43.53147" lon="5.57875">
        <ele>859</ele>
        <time>2009-01-30T11:27:43Z</time>
      </trkpt>
      <trkpt lat="43.53152" lon="5.57885">
        <ele>862</ele>
        <time>2009-01-30T11:28:19Z</time>
      </trkpt>
      <trkpt lat="43.53161" lon="5.57884">
        <ele>863</ele>
        <time>2009-01-30T11:29:32Z</time>
      </trkpt>
      <trkpt lat="43.53168" lon="5.57877">
        <ele>866</ele>
        <time>2009-01-30T11:30:18Z</time>
      </trkpt>
      <trkpt lat="43.5317" lon="5.57865">
        <ele>865</ele>
        <time>2009-01-30T11:30:40Z</time>
      </trkpt>
      <trkpt lat="43.53169" lon="5.57852">
        <ele>865</ele>
        <time>2009-01-30T11:30:57Z</time>
      </trkpt>
      <trkpt lat="43.53162" lon="5.57843">
        <ele>864</ele>
        <time>2009-01-30T11:31:32Z</time>
      </trkpt>
      <trkpt lat="43.53154" lon="5.57839">
        <ele>862</ele>
        <time>2009-01-30T11:31:40Z</time>
      </trkpt>
      <trkpt lat="43.53145" lon="5.57839">
        <ele>859</ele>
        <time>2009-01-30T11:32:05Z</time>
      </trkpt>
      <trkpt lat="43.5313" lon="5.57823">
        <ele>842</ele>
        <time>2009-01-30T12:23:59Z</time>
      </trkpt>
      <trkpt lat="43.53139" lon="5.57822">
        <ele>846</ele>
        <time>2009-01-30T12:24:00Z</time>
      </trkpt>
      <trkpt lat="43.53134" lon="5.57835">
        <ele>854</ele>
        <time>2009-01-30T12:24:05Z</time>
      </trkpt>
      <trkpt lat="43.53144" lon="5.57836">
        <ele>858</ele>
        <time>2009-01-30T12:24:11Z</time>
      </trkpt>
      <trkpt lat="43.53149" lon="5.57846">
        <ele>860</ele>
        <time>2009-01-30T12:25:47Z</time>
      </trkpt>
      <trkpt lat="43.5314" lon="5.57827">
        <ele>847</ele>
        <time>2009-01-30T12:25:56Z</time>
      </trkpt>
      <trkpt lat="43.53147" lon="5.57836">
        <ele>860</ele>
        <time>2009-01-30T12:26:04Z</time>
      </trkpt>
      <trkpt lat="43.53152" lon="5.57847">
        <ele>861</ele>
        <time>2009-01-30T12:26:08Z</time>
      </trkpt>
      <trkpt lat="43.53158" lon="5.57856">
        <ele>861</ele>
        <time>2009-01-30T12:26:12Z</time>
      </trkpt>
      <trkpt lat="43.53166" lon="5.57865">
        <ele>861</ele>
        <time>2009-01-30T12:26:17Z</time>
      </trkpt>
      <trkpt lat="43.53158" lon="5.5786">
        <ele>861</ele>
        <time>2009-01-30T12:27:00Z</time>
      </trkpt>
      <trkpt lat="43.53151" lon="5.57851">
        <ele>860</ele>
        <time>2009-01-30T12:27:04Z</time>
      </trkpt>
      <trkpt lat="43.53147" lon="5.57839">
        <ele>860</ele>
        <time>2009-01-30T12:27:10Z</time>
      </trkpt>
      <trkpt lat="43.53142" lon="5.57828">
        <ele>849</ele>
        <time>2009-01-30T12:27:55Z</time>
      </trkpt>
      <trkpt lat="43.5314" lon="5.57841">
        <ele>857</ele>
        <time>2009-01-30T12:28:47Z</time>
      </trkpt>
      <trkpt lat="43.53133" lon="5.57849">
        <ele>854</ele>
        <time>2009-01-30T12:29:16Z</time>
      </trkpt>
      <trkpt lat="43.53141" lon="5.57845">
        <ele>857</ele>
        <time>2009-01-30T12:29:24Z</time>
      </trkpt>
      <trkpt lat="43.5315" lon="5.57839">
        <ele>861</ele>
        <time>2009-01-30T12:29:36Z</time>
      </trkpt>
      <trkpt lat="43.53157" lon="5.57832">
        <ele>859</ele>
        <time>2009-01-30T12:29:44Z</time>
      </trkpt>
      <trkpt lat="43.53162" lon="5.57821">
        <ele>857</ele>
        <time>2009-01-30T12:29:52Z</time>
      </trkpt>
      <trkpt lat="43.53168" lon="5.5781">
        <ele>861</ele>
        <time>2009-01-30T12:30:02Z</time>
      </trkpt>
      <trkpt lat="43.53178" lon="5.57807">
        <ele>860</ele>
        <time>2009-01-30T12:30:12Z</time>
      </trkpt>
      <trkpt lat="43.53181" lon="5.57795">
        <ele>858</ele>
        <time>2009-01-30T12:30:28Z</time>
      </trkpt>
      <trkpt lat="43.53177" lon="5.57807">
        <ele>860</ele>
        <time>2009-01-30T12:31:02Z</time>
      </trkpt>
      <trkpt lat="43.53167" lon="5.57812">
        <ele>862</ele>
        <time>2009-01-30T12:31:13Z</time>
      </trkpt>
      <trkpt lat="43.53165" lon="5.57823">
        <ele>859</ele>
        <time>2009-01-30T12:31:18Z</time>
      </trkpt>
      <trkpt lat="43.5316" lon="5.57833">
        <ele>862</ele>
        <time>2009-01-30T12:31:29Z</time>
      </trkpt>
      <trkpt lat="43.53151" lon="5.57839">
        <ele>861</ele>
        <time>2009-01-30T12:31:40Z</time>
      </trkpt>
      <trkpt lat="43.5316" lon="5.57842">
        <ele>864</ele>
        <time>2009-01-30T12:32:11Z</time>
      </trkpt>
      <trkpt lat="43.53166" lon="5.57831">
        <ele>867</ele>
        <time>2009-01-30T12:32:29Z</time>
      </trkpt>
      <trkpt lat="43.53162" lon="5.5782">
        <ele>856</ele>
        <time>2009-01-30T12:32:35Z</time>
      </trkpt>
      <trkpt lat="43.5317" lon="5.57816">
        <ele>863</ele>
        <time>2009-01-30T12:32:47Z</time>
      </trkpt>
      <trkpt lat="43.53178" lon="5.5781">
        <ele>860</ele>
        <time>2009-01-30T12:33:12Z</time>
      </trkpt>
      <trkpt lat="43.53183" lon="5.57798">
        <ele>858</ele>
        <time>2009-01-30T12:33:36Z</time>
      </trkpt>
      <trkpt lat="43.53184" lon="5.57786">
        <ele>857</ele>
        <time>2009-01-30T12:34:02Z</time>
      </trkpt>
      <trkpt lat="43.53188" lon="5.57773">
        <ele>856</ele>
        <time>2009-01-30T12:34:15Z</time>
      </trkpt>
      <trkpt lat="43.53186" lon="5.57759">
        <ele>855</ele>
        <time>2009-01-30T12:34:48Z</time>
      </trkpt>
      <trkpt lat="43.53186" lon="5.57745">
        <ele>850</ele>
        <time>2009-01-30T12:34:55Z</time>
      </trkpt>
      <trkpt lat="43.5319" lon="5.57733">
        <ele>849</ele>
        <time>2009-01-30T12:46:24Z</time>
      </trkpt>
      <trkpt lat="43.53192" lon="5.57721">
        <ele>848</ele>
        <time>2009-01-30T12:46:37Z</time>
      </trkpt>
      <trkpt lat="43.53196" lon="5.5771">
        <ele>847</ele>
        <time>2009-01-30T12:46:50Z</time>
      </trkpt>
      <trkpt lat="43.532" lon="5.57698">
        <ele>846</ele>
        <time>2009-01-30T12:46:59Z</time>
      </trkpt>
      <trkpt lat="43.53203" lon="5.57687">
        <ele>845</ele>
        <time>2009-01-30T12:47:10Z</time>
      </trkpt>
      <trkpt lat="43.53205" lon="5.57673">
        <ele>845</ele>
        <time>2009-01-30T12:47:23Z</time>
      </trkpt>
      <trkpt lat="43.53209" lon="5.57662">
        <ele>840</ele>
        <time>2009-01-30T12:47:36Z</time>
      </trkpt>
      <trkpt lat="43.53213" lon="5.5765">
        <ele>840</ele>
        <time>2009-01-30T12:47:47Z</time>
      </trkpt>
      <trkpt lat="43.53216" lon="5.57638">
        <ele>839</ele>
        <time>2009-01-30T12:47:58Z</time>
      </trkpt>
      <trkpt lat="43.53218" lon="5.57626">
        <ele>839</ele>
        <time>2009-01-30T12:48:07Z</time>
      </trkpt>
      <trkpt lat="43.53221" lon="5.57612">
        <ele>839</ele>
        <time>2009-01-30T12:48:20Z</time>
      </trkpt>
      <trkpt lat="43.53223" lon="5.576">
        <ele>839</ele>
        <time>2009-01-30T12:48:32Z</time>
      </trkpt>
      <trkpt lat="43.53225" lon="5.57587">
        <ele>840</ele>
        <time>2009-01-30T12:49:00Z</time>
      </trkpt>
      <trkpt lat="43.5323" lon="5.57576">
        <ele>834</ele>
        <time>2009-01-30T12:49:46Z</time>
      </trkpt>
      <trkpt lat="43.53239" lon="5.57578">
        <ele>837</ele>
        <time>2009-01-30T12:50:11Z</time>
      </trkpt>
      <trkpt lat="43.53245" lon="5.57567">
        <ele>835</ele>
        <time>2009-01-30T12:51:07Z</time>
      </trkpt>
      <trkpt lat="43.53249" lon="5.57556">
        <ele>832</ele>
        <time>2009-01-30T12:51:28Z</time>
      </trkpt>
      <trkpt lat="43.53256" lon="5.57549">
        <ele>828</ele>
        <time>2009-01-30T12:51:47Z</time>
      </trkpt>
      <trkpt lat="43.53264" lon="5.57541">
        <ele>826</ele>
        <time>2009-01-30T12:52:46Z</time>
      </trkpt>
      <trkpt lat="43.53269" lon="5.57531">
        <ele>824</ele>
        <time>2009-01-30T12:53:07Z</time>
      </trkpt>
      <trkpt lat="43.53278" lon="5.57527">
        <ele>823</ele>
        <time>2009-01-30T12:54:04Z</time>
      </trkpt>
      <trkpt lat="43.53285" lon="5.57519">
        <ele>821</ele>
        <time>2009-01-30T12:54:24Z</time>
      </trkpt>
      <trkpt lat="43.53292" lon="5.5751">
        <ele>820</ele>
        <time>2009-01-30T12:54:46Z</time>
      </trkpt>
      <trkpt lat="43.53298" lon="5.57498">
        <ele>801</ele>
        <time>2009-01-30T12:55:00Z</time>
      </trkpt>
      <trkpt lat="43.53305" lon="5.57489">
        <ele>800</ele>
        <time>2009-01-30T12:55:24Z</time>
      </trkpt>
      <trkpt lat="43.53309" lon="5.57477">
        <ele>798</ele>
        <time>2009-01-30T12:55:40Z</time>
      </trkpt>
      <trkpt lat="43.53318" lon="5.57476">
        <ele>798</ele>
        <time>2009-01-30T12:55:57Z</time>
      </trkpt>
      <trkpt lat="43.53325" lon="5.57467">
        <ele>796</ele>
        <time>2009-01-30T12:56:12Z</time>
      </trkpt>
      <trkpt lat="43.53333" lon="5.57461">
        <ele>787</ele>
        <time>2009-01-30T12:56:51Z</time>
      </trkpt>
      <trkpt lat="43.53339" lon="5.57451">
        <ele>785</ele>
        <time>2009-01-30T12:57:26Z</time>
      </trkpt>
      <trkpt lat="43.53341" lon="5.57439">
        <ele>783</ele>
        <time>2009-01-30T12:57:37Z</time>
      </trkpt>
      <trkpt lat="43.53349" lon="5.57446">
        <ele>783</ele>
        <time>2009-01-30T12:57:48Z</time>
      </trkpt>
      <trkpt lat="43.53355" lon="5.57456">
        <ele>784</ele>
        <time>2009-01-30T12:58:13Z</time>
      </trkpt>
      <trkpt lat="43.53359" lon="5.57468">
        <ele>785</ele>
        <time>2009-01-30T12:58:26Z</time>
      </trkpt>
      <trkpt lat="43.53362" lon="5.57456">
        <ele>783</ele>
        <time>2009-01-30T12:58:51Z</time>
      </trkpt>
      <trkpt lat="43.53364" lon="5.57444">
        <ele>781</ele>
        <time>2009-01-30T12:59:14Z</time>
      </trkpt>
      <trkpt lat="43.53371" lon="5.57436">
        <ele>780</ele>
        <time>2009-01-30T12:59:39Z</time>
      </trkpt>
      <trkpt lat="43.53375" lon="5.57424">
        <ele>778</ele>
        <time>2009-01-30T12:59:52Z</time>
      </trkpt>
      <trkpt lat="43.53379" lon="5.57413">
        <ele>761</ele>
        <time>2009-01-30T13:00:15Z</time>
      </trkpt>
      <trkpt lat="43.53384" lon="5.57403">
        <ele>760</ele>
        <time>2009-01-30T13:00:35Z</time>
      </trkpt>
      <trkpt lat="43.53387" lon="5.57391">
        <ele>758</ele>
        <time>2009-01-30T13:00:52Z</time>
      </trkpt>
      <trkpt lat="43.53394" lon="5.57384">
        <ele>757</ele>
        <time>2009-01-30T13:01:23Z</time>
      </trkpt>
      <trkpt lat="43.53401" lon="5.57377">
        <ele>756</ele>
        <time>2009-01-30T13:01:39Z</time>
      </trkpt>
      <trkpt lat="43.53406" lon="5.57366">
        <ele>754</ele>
        <time>2009-01-30T13:03:08Z</time>
      </trkpt>
      <trkpt lat="43.53413" lon="5.57359">
        <ele>752</ele>
        <time>2009-01-30T13:03:32Z</time>
      </trkpt>
      <trkpt lat="43.53422" lon="5.57361">
        <ele>748</ele>
        <time>2009-01-30T13:03:48Z</time>
      </trkpt>
      <trkpt lat="43.53432" lon="5.57363">
        <ele>748</ele>
        <time>2009-01-30T13:04:03Z</time>
      </trkpt>
      <trkpt lat="43.5344" lon="5.57359">
        <ele>748</ele>
        <time>2009-01-30T13:04:19Z</time>
      </trkpt>
      <trkpt lat="43.53449" lon="5.57353">
        <ele>747</ele>
        <time>2009-01-30T13:04:33Z</time>
      </trkpt>
      <trkpt lat="43.53457" lon="5.57349">
        <ele>746</ele>
        <time>2009-01-30T13:04:47Z</time>
      </trkpt>
      <trkpt lat="43.53462" lon="5.57339">
        <ele>745</ele>
        <time>2009-01-30T13:04:59Z</time>
      </trkpt>
      <trkpt lat="43.5347" lon="5.57333">
        <ele>734</ele>
        <time>2009-01-30T13:05:18Z</time>
      </trkpt>
      <trkpt lat="43.53479" lon="5.57327">
        <ele>734</ele>
        <time>2009-01-30T13:05:33Z</time>
      </trkpt>
      <trkpt lat="43.53483" lon="5.57316">
        <ele>733</ele>
        <time>2009-01-30T13:05:46Z</time>
      </trkpt>
      <trkpt lat="43.53492" lon="5.57318">
        <ele>735</ele>
        <time>2009-01-30T13:06:13Z</time>
      </trkpt>
      <trkpt lat="43.53502" lon="5.57316">
        <ele>731</ele>
        <time>2009-01-30T13:06:27Z</time>
      </trkpt>
      <trkpt lat="43.53509" lon="5.57307">
        <ele>728</ele>
        <time>2009-01-30T13:06:37Z</time>
      </trkpt>
      <trkpt lat="43.53514" lon="5.57296">
        <ele>726</ele>
        <time>2009-01-30T13:06:54Z</time>
      </trkpt>
      <trkpt lat="43.5352" lon="5.57286">
        <ele>724</ele>
        <time>2009-01-30T13:07:05Z</time>
      </trkpt>
      <trkpt lat="43.53524" lon="5.57275">
        <ele>723</ele>
        <time>2009-01-30T13:07:16Z</time>
      </trkpt>
      <trkpt lat="43.5353" lon="5.57265">
        <ele>722</ele>
        <time>2009-01-30T13:07:30Z</time>
      </trkpt>
      <trkpt lat="43.53535" lon="5.57256">
        <ele>722</ele>
        <time>2009-01-30T13:07:39Z</time>
      </trkpt>
      <trkpt lat="43.53544" lon="5.57251">
        <ele>721</ele>
        <time>2009-01-30T13:07:55Z</time>
      </trkpt>
      <trkpt lat="43.53551" lon="5.57244">
        <ele>705</ele>
        <time>2009-01-30T13:08:09Z</time>
      </trkpt>
      <trkpt lat="43.53558" lon="5.57237">
        <ele>704</ele>
        <time>2009-01-30T13:08:18Z</time>
      </trkpt>
      <trkpt lat="43.53564" lon="5.57226">
        <ele>703</ele>
        <time>2009-01-30T13:08:34Z</time>
      </trkpt>
      <trkpt lat="43.53571" lon="5.5722">
        <ele>702</ele>
        <time>2009-01-30T13:08:51Z</time>
      </trkpt>
      <trkpt lat="43.53579" lon="5.57212">
        <ele>700</ele>
        <time>2009-01-30T13:09:05Z</time>
      </trkpt>
      <trkpt lat="43.53586" lon="5.57203">
        <ele>695</ele>
        <time>2009-01-30T13:09:17Z</time>
      </trkpt>
      <trkpt lat="43.53595" lon="5.57203">
        <ele>694</ele>
        <time>2009-01-30T13:09:39Z</time>
      </trkpt>
      <trkpt lat="43.53604" lon="5.57204">
        <ele>694</ele>
        <time>2009-01-30T13:09:58Z</time>
      </trkpt>
      <trkpt lat="43.53611" lon="5.57196">
        <ele>693</ele>
        <time>2009-01-30T13:10:08Z</time>
      </trkpt>
      <trkpt lat="43.53616" lon="5.57186">
        <ele>692</ele>
        <time>2009-01-30T13:10:44Z</time>
      </trkpt>
      <trkpt lat="43.53625" lon="5.57181">
        <ele>691</ele>
        <time>2009-01-30T13:11:10Z</time>
      </trkpt>
      <trkpt lat="43.53628" lon="5.57169">
        <ele>690</ele>
        <time>2009-01-30T13:11:37Z</time>
      </trkpt>
      <trkpt lat="43.53635" lon="5.57162">
        <ele>679</ele>
        <time>2009-01-30T13:12:10Z</time>
      </trkpt>
      <trkpt lat="43.53642" lon="5.57155">
        <ele>679</ele>
        <time>2009-01-30T13:12:25Z</time>
      </trkpt>
      <trkpt lat="43.53649" lon="5.57162">
        <ele>680</ele>
        <time>2009-01-30T13:12:37Z</time>
      </trkpt>
      <trkpt lat="43.53653" lon="5.5715">
        <ele>679</ele>
        <time>2009-01-30T13:13:14Z</time>
      </trkpt>
      <trkpt lat="43.53652" lon="5.57138">
        <ele>677</ele>
        <time>2009-01-30T13:13:26Z</time>
      </trkpt>
      <trkpt lat="43.53654" lon="5.57125">
        <ele>675</ele>
        <time>2009-01-30T13:13:39Z</time>
      </trkpt>
      <trkpt lat="43.53656" lon="5.57114">
        <ele>674</ele>
        <time>2009-01-30T13:13:49Z</time>
      </trkpt>
      <trkpt lat="43.53659" lon="5.57102">
        <ele>672</ele>
        <time>2009-01-30T13:14:02Z</time>
      </trkpt>
      <trkpt lat="43.53664" lon="5.57091">
        <ele>671</ele>
        <time>2009-01-30T13:14:13Z</time>
      </trkpt>
      <trkpt lat="43.53667" lon="5.57079">
        <ele>666</ele>
        <time>2009-01-30T13:14:28Z</time>
      </trkpt>
      <trkpt lat="43.53666" lon="5.57066">
        <ele>658</ele>
        <time>2009-01-30T13:14:45Z</time>
      </trkpt>
      <trkpt lat="43.53673" lon="5.57073">
        <ele>662</ele>
        <time>2009-01-30T13:15:17Z</time>
      </trkpt>
      <trkpt lat="43.53681" lon="5.57079">
        <ele>661</ele>
        <time>2009-01-30T13:15:52Z</time>
      </trkpt>
      <trkpt lat="43.53673" lon="5.57073">
        <ele>662</ele>
        <time>2009-01-30T13:16:03Z</time>
      </trkpt>
      <trkpt lat="43.53666" lon="5.57065">
        <ele>658</ele>
        <time>2009-01-30T13:16:24Z</time>
      </trkpt>
      <trkpt lat="43.53675" lon="5.57068">
        <ele>659</ele>
        <time>2009-01-30T13:19:38Z</time>
      </trkpt>
      <trkpt lat="43.53682" lon="5.57058">
        <ele>655</ele>
        <time>2009-01-30T13:19:58Z</time>
      </trkpt>
      <trkpt lat="43.53688" lon="5.57049">
        <ele>652</ele>
        <time>2009-01-30T13:20:13Z</time>
      </trkpt>
      <trkpt lat="43.53692" lon="5.57037">
        <ele>650</ele>
        <time>2009-01-30T13:20:33Z</time>
      </trkpt>
      <trkpt lat="43.53698" lon="5.57026">
        <ele>649</ele>
        <time>2009-01-30T13:20:50Z</time>
      </trkpt>
      <trkpt lat="43.53706" lon="5.57021">
        <ele>649</ele>
        <time>2009-01-30T13:21:13Z</time>
      </trkpt>
      <trkpt lat="43.53715" lon="5.57018">
        <ele>648</ele>
        <time>2009-01-30T13:21:27Z</time>
      </trkpt>
      <trkpt lat="43.53721" lon="5.57009">
        <ele>648</ele>
        <time>2009-01-30T13:21:39Z</time>
      </trkpt>
      <trkpt lat="43.53728" lon="5.56999">
        <ele>639</ele>
        <time>2009-01-30T13:21:54Z</time>
      </trkpt>
      <trkpt lat="43.53735" lon="5.5699">
        <ele>639</ele>
        <time>2009-01-30T13:22:09Z</time>
      </trkpt>
      <trkpt lat="43.53742" lon="5.5698">
        <ele>638</ele>
        <time>2009-01-30T13:22:26Z</time>
      </trkpt>
      <trkpt lat="43.53744" lon="5.56967">
        <ele>636</ele>
        <time>2009-01-30T13:22:40Z</time>
      </trkpt>
      <trkpt lat="43.53749" lon="5.56956">
        <ele>634</ele>
        <time>2009-01-30T13:22:51Z</time>
      </trkpt>
      <trkpt lat="43.53754" lon="5.56945">
        <ele>633</ele>
        <time>2009-01-30T13:23:07Z</time>
      </trkpt>
      <trkpt lat="43.53758" lon="5.56933">
        <ele>632</ele>
        <time>2009-01-30T13:23:18Z</time>
      </trkpt>
      <trkpt lat="43.53764" lon="5.56922">
        <ele>632</ele>
        <time>2009-01-30T13:24:55Z</time>
      </trkpt>
      <trkpt lat="43.53769" lon="5.56912">
        <ele>628</ele>
        <time>2009-01-30T13:25:05Z</time>
      </trkpt>
      <trkpt lat="43.53773" lon="5.569">
        <ele>626</ele>
        <time>2009-01-30T13:25:15Z</time>
      </trkpt>
      <trkpt lat="43.53777" lon="5.56888">
        <ele>624</ele>
        <time>2009-01-30T13:25:24Z</time>
      </trkpt>
      <trkpt lat="43.53779" lon="5.56876">
        <ele>623</ele>
        <time>2009-01-30T13:25:34Z</time>
      </trkpt>
      <trkpt lat="43.53784" lon="5.56867">
        <ele>622</ele>
        <time>2009-01-30T13:25:47Z</time>
      </trkpt>
      <trkpt lat="43.53792" lon="5.56859">
        <ele>622</ele>
        <time>2009-01-30T13:25:59Z</time>
      </trkpt>
      <trkpt lat="43.53797" lon="5.56849">
        <ele>623</ele>
        <time>2009-01-30T13:26:09Z</time>
      </trkpt>
      <trkpt lat="43.53801" lon="5.56836">
        <ele>624</ele>
        <time>2009-01-30T13:26:19Z</time>
      </trkpt>
      <trkpt lat="43.53806" lon="5.56825">
        <ele>616</ele>
        <time>2009-01-30T13:26:34Z</time>
      </trkpt>
      <trkpt lat="43.53811" lon="5.56814">
        <ele>616</ele>
        <time>2009-01-30T13:26:47Z</time>
      </trkpt>
      <trkpt lat="43.53816" lon="5.56805">
        <ele>616</ele>
        <time>2009-01-30T13:27:04Z</time>
      </trkpt>
      <trkpt lat="43.53821" lon="5.56794">
        <ele>615</ele>
        <time>2009-01-30T13:27:16Z</time>
      </trkpt>
      <trkpt lat="43.53824" lon="5.56781">
        <ele>614</ele>
        <time>2009-01-30T13:27:26Z</time>
      </trkpt>
      <trkpt lat="43.53824" lon="5.56769">
        <ele>615</ele>
        <time>2009-01-30T13:27:43Z</time>
      </trkpt>
      <trkpt lat="43.53831" lon="5.56761">
        <ele>617</ele>
        <time>2009-01-30T13:28:11Z</time>
      </trkpt>
      <trkpt lat="43.53834" lon="5.5675">
        <ele>621</ele>
        <time>2009-01-30T13:28:22Z</time>
      </trkpt>
      <trkpt lat="43.53837" lon="5.56738">
        <ele>617</ele>
        <time>2009-01-30T13:28:39Z</time>
      </trkpt>
      <trkpt lat="43.53841" lon="5.56727">
        <ele>614</ele>
        <time>2009-01-30T13:28:50Z</time>
      </trkpt>
      <trkpt lat="43.53846" lon="5.56717">
        <ele>613</ele>
        <time>2009-01-30T13:29:01Z</time>
      </trkpt>
      <trkpt lat="43.5385" lon="5.56705">
        <ele>611</ele>
        <time>2009-01-30T13:29:13Z</time>
      </trkpt>
      <trkpt lat="43.53852" lon="5.56692">
        <ele>610</ele>
        <time>2009-01-30T13:29:26Z</time>
      </trkpt>
      <trkpt lat="43.53852" lon="5.5668">
        <ele>609</ele>
        <time>2009-01-30T13:29:40Z</time>
      </trkpt>
      <trkpt lat="43.53852" lon="5.56667">
        <ele>609</ele>
        <time>2009-01-30T13:29:51Z</time>
      </trkpt>
      <trkpt lat="43.5385" lon="5.56655">
        <ele>607</ele>
        <time>2009-01-30T13:31:31Z</time>
      </trkpt>
      <trkpt lat="43.53854" lon="5.56645">
        <ele>607</ele>
        <time>2009-01-30T13:31:42Z</time>
      </trkpt>
      <trkpt lat="43.53858" lon="5.56632">
        <ele>607</ele>
        <time>2009-01-30T13:32:03Z</time>
      </trkpt>
      <trkpt lat="43.53861" lon="5.5662">
        <ele>606</ele>
        <time>2009-01-30T13:32:17Z</time>
      </trkpt>
      <trkpt lat="43.53859" lon="5.56608">
        <ele>606</ele>
        <time>2009-01-30T13:32:26Z</time>
      </trkpt>
      <trkpt lat="43.53857" lon="5.56594">
        <ele>605</ele>
        <time>2009-01-30T13:32:36Z</time>
      </trkpt>
      <trkpt lat="43.53859" lon="5.56582">
        <ele>602</ele>
        <time>2009-01-30T13:32:51Z</time>
      </trkpt>
      <trkpt lat="43.53862" lon="5.56569">
        <ele>601</ele>
        <time>2009-01-30T13:33:10Z</time>
      </trkpt>
      <trkpt lat="43.53864" lon="5.56558">
        <ele>601</ele>
        <time>2009-01-30T13:33:26Z</time>
      </trkpt>
      <trkpt lat="43.53865" lon="5.56545">
        <ele>600</ele>
        <time>2009-01-30T13:33:37Z</time>
      </trkpt>
      <trkpt lat="43.5386" lon="5.56535">
        <ele>599</ele>
        <time>2009-01-30T13:33:52Z</time>
      </trkpt>
      <trkpt lat="43.53854" lon="5.56524">
        <ele>598</ele>
        <time>2009-01-30T13:34:10Z</time>
      </trkpt>
      <trkpt lat="43.5385" lon="5.56513">
        <ele>597</ele>
        <time>2009-01-30T13:34:57Z</time>
      </trkpt>
      <trkpt lat="43.5385" lon="5.565">
        <ele>596</ele>
        <time>2009-01-30T13:35:52Z</time>
      </trkpt>
      <trkpt lat="43.53851" lon="5.56488">
        <ele>590</ele>
        <time>2009-01-30T13:36:02Z</time>
      </trkpt>
      <trkpt lat="43.53851" lon="5.56475">
        <ele>589</ele>
        <time>2009-01-30T13:36:14Z</time>
      </trkpt>
      <trkpt lat="43.53848" lon="5.56463">
        <ele>588</ele>
        <time>2009-01-30T13:36:26Z</time>
      </trkpt>
      <trkpt lat="43.53845" lon="5.56451">
        <ele>587</ele>
        <time>2009-01-30T13:36:38Z</time>
      </trkpt>
      <trkpt lat="43.53845" lon="5.56437">
        <ele>585</ele>
        <time>2009-01-30T13:36:49Z</time>
      </trkpt>
      <trkpt lat="43.53843" lon="5.56425">
        <ele>584</ele>
        <time>2009-01-30T13:37:06Z</time>
      </trkpt>
      <trkpt lat="43.53839" lon="5.56413">
        <ele>581</ele>
        <time>2009-01-30T13:37:54Z</time>
      </trkpt>
      <trkpt lat="43.53838" lon="5.564">
        <ele>579</ele>
        <time>2009-01-30T13:38:58Z</time>
      </trkpt>
      <trkpt lat="43.53837" lon="5.56388">
        <ele>578</ele>
        <time>2009-01-30T13:39:37Z</time>
      </trkpt>
      <trkpt lat="43.53836" lon="5.56374">
        <ele>578</ele>
        <time>2009-01-30T13:39:45Z</time>
      </trkpt>
      <trkpt lat="43.53833" lon="5.56363">
        <ele>578</ele>
        <time>2009-01-30T13:39:59Z</time>
      </trkpt>
      <trkpt lat="43.53832" lon="5.56349">
        <ele>572</ele>
        <time>2009-01-30T13:40:14Z</time>
      </trkpt>
      <trkpt lat="43.53831" lon="5.56336">
        <ele>579</ele>
        <time>2009-01-30T13:40:24Z</time>
      </trkpt>
      <trkpt lat="43.53832" lon="5.56323">
        <ele>574</ele>
        <time>2009-01-30T13:40:40Z</time>
      </trkpt>
      <trkpt lat="43.53833" lon="5.5631">
        <ele>577</ele>
        <time>2009-01-30T13:40:53Z</time>
      </trkpt>
      <trkpt lat="43.53835" lon="5.56297">
        <ele>576</ele>
        <time>2009-01-30T13:41:09Z</time>
      </trkpt>
      <trkpt lat="43.53833" lon="5.56284">
        <ele>568</ele>
        <time>2009-01-30T13:41:18Z</time>
      </trkpt>
      <trkpt lat="43.53831" lon="5.56271">
        <ele>570</ele>
        <time>2009-01-30T13:41:26Z</time>
      </trkpt>
      <trkpt lat="43.53831" lon="5.56258">
        <ele>575</ele>
        <time>2009-01-30T13:41:37Z</time>
      </trkpt>
      <trkpt lat="43.53831" lon="5.56245">
        <ele>577</ele>
        <time>2009-01-30T13:41:55Z</time>
      </trkpt>
      <trkpt lat="43.53831" lon="5.56231">
        <ele>570</ele>
        <time>2009-01-30T13:42:03Z</time>
      </trkpt>
      <trkpt lat="43.53833" lon="5.56219">
        <ele>568</ele>
        <time>2009-01-30T13:42:11Z</time>
      </trkpt>
      <trkpt lat="43.53833" lon="5.56206">
        <ele>567</ele>
        <time>2009-01-30T13:42:35Z</time>
      </trkpt>
      <trkpt lat="43.53834" lon="5.56194">
        <ele>580</ele>
        <time>2009-01-30T13:42:46Z</time>
      </trkpt>
      <trkpt lat="43.53839" lon="5.56183">
        <ele>581</ele>
        <time>2009-01-30T13:42:57Z</time>
      </trkpt>
      <trkpt lat="43.53843" lon="5.5617">
        <ele>582</ele>
        <time>2009-01-30T13:43:08Z</time>
      </trkpt>
      <trkpt lat="43.53845" lon="5.56158">
        <ele>583</ele>
        <time>2009-01-30T13:43:18Z</time>
      </trkpt>
      <trkpt lat="43.53852" lon="5.56149">
        <ele>583</ele>
        <time>2009-01-30T13:43:29Z</time>
      </trkpt>
      <trkpt lat="43.53859" lon="5.5614">
        <ele>583</ele>
        <time>2009-01-30T13:43:39Z</time>
      </trkpt>
      <trkpt lat="43.53866" lon="5.56133">
        <ele>583</ele>
        <time>2009-01-30T13:43:52Z</time>
      </trkpt>
      <trkpt lat="43.53873" lon="5.56123">
        <ele>583</ele>
        <time>2009-01-30T13:44:03Z</time>
      </trkpt>
      <trkpt lat="43.5388" lon="5.56116">
        <ele>584</ele>
        <time>2009-01-30T13:44:15Z</time>
      </trkpt>
      <trkpt lat="43.53887" lon="5.56107">
        <ele>584</ele>
        <time>2009-01-30T13:44:24Z</time>
      </trkpt>
      <trkpt lat="43.53893" lon="5.56097">
        <ele>585</ele>
        <time>2009-01-30T13:44:36Z</time>
      </trkpt>
      <trkpt lat="43.53898" lon="5.56086">
        <ele>586</ele>
        <time>2009-01-30T13:44:45Z</time>
      </trkpt>
      <trkpt lat="43.53897" lon="5.56072">
        <ele>584</ele>
        <time>2009-01-30T13:44:57Z</time>
      </trkpt>
      <trkpt lat="43.53895" lon="5.5606">
        <ele>582</ele>
        <time>2009-01-30T13:45:07Z</time>
      </trkpt>
      <trkpt lat="43.53892" lon="5.56047">
        <ele>581</ele>
        <time>2009-01-30T13:45:16Z</time>
      </trkpt>
      <trkpt lat="43.53888" lon="5.56036">
        <ele>580</ele>
        <time>2009-01-30T13:45:26Z</time>
      </trkpt>
      <trkpt lat="43.53884" lon="5.56024">
        <ele>579</ele>
        <time>2009-01-30T13:45:42Z</time>
      </trkpt>
      <trkpt lat="43.5388" lon="5.56012">
        <ele>579</ele>
        <time>2009-01-30T13:45:51Z</time>
      </trkpt>
      <trkpt lat="43.53877" lon="5.56001">
        <ele>579</ele>
        <time>2009-01-30T13:46:00Z</time>
      </trkpt>
      <trkpt lat="43.53876" lon="5.55988">
        <ele>574</ele>
        <time>2009-01-30T13:46:09Z</time>
      </trkpt>
      <trkpt lat="43.53876" lon="5.55975">
        <ele>573</ele>
        <time>2009-01-30T13:46:19Z</time>
      </trkpt>
      <trkpt lat="43.53876" lon="5.55961">
        <ele>573</ele>
        <time>2009-01-30T13:46:29Z</time>
      </trkpt>
      <trkpt lat="43.53875" lon="5.55949">
        <ele>572</ele>
        <time>2009-01-30T13:46:38Z</time>
      </trkpt>
      <trkpt lat="43.53873" lon="5.55936">
        <ele>572</ele>
        <time>2009-01-30T13:46:46Z</time>
      </trkpt>
      <trkpt lat="43.53872" lon="5.55923">
        <ele>572</ele>
        <time>2009-01-30T13:46:58Z</time>
      </trkpt>
      <trkpt lat="43.5387" lon="5.55911">
        <ele>568</ele>
        <time>2009-01-30T13:47:56Z</time>
      </trkpt>
      <trkpt lat="43.53871" lon="5.55898">
        <ele>568</ele>
        <time>2009-01-30T13:48:08Z</time>
      </trkpt>
      <trkpt lat="43.53871" lon="5.55886">
        <ele>568</ele>
        <time>2009-01-30T13:48:20Z</time>
      </trkpt>
      <trkpt lat="43.53871" lon="5.55873">
        <ele>567</ele>
        <time>2009-01-30T13:48:30Z</time>
      </trkpt>
      <trkpt lat="43.5387" lon="5.5586">
        <ele>567</ele>
        <time>2009-01-30T13:48:43Z</time>
      </trkpt>
      <trkpt lat="43.5387" lon="5.55847">
        <ele>567</ele>
        <time>2009-01-30T13:48:55Z</time>
      </trkpt>
      <trkpt lat="43.53871" lon="5.55834">
        <ele>567</ele>
        <time>2009-01-30T13:49:06Z</time>
      </trkpt>
      <trkpt lat="43.53873" lon="5.5582">
        <ele>563</ele>
        <time>2009-01-30T13:49:17Z</time>
      </trkpt>
      <trkpt lat="43.53874" lon="5.55807">
        <ele>562</ele>
        <time>2009-01-30T13:49:28Z</time>
      </trkpt>
      <trkpt lat="43.53873" lon="5.55795">
        <ele>562</ele>
        <time>2009-01-30T13:50:10Z</time>
      </trkpt>
      <trkpt lat="43.53877" lon="5.55782">
        <ele>561</ele>
        <time>2009-01-30T13:50:24Z</time>
      </trkpt>
      <trkpt lat="43.53874" lon="5.55771">
        <ele>561</ele>
        <time>2009-01-30T13:50:38Z</time>
      </trkpt>
      <trkpt lat="43.53872" lon="5.55757">
        <ele>561</ele>
        <time>2009-01-30T13:50:52Z</time>
      </trkpt>
      <trkpt lat="43.53869" lon="5.55745">
        <ele>556</ele>
        <time>2009-01-30T13:51:04Z</time>
      </trkpt>
      <trkpt lat="43.5387" lon="5.55733">
        <ele>555</ele>
        <time>2009-01-30T13:51:18Z</time>
      </trkpt>
      <trkpt lat="43.53864" lon="5.55724">
        <ele>555</ele>
        <time>2009-01-30T13:51:32Z</time>
      </trkpt>
      <trkpt lat="43.53857" lon="5.55715">
        <ele>555</ele>
        <time>2009-01-30T13:51:45Z</time>
      </trkpt>
      <trkpt lat="43.53851" lon="5.55705">
        <ele>555</ele>
        <time>2009-01-30T13:51:56Z</time>
      </trkpt>
      <trkpt lat="43.53848" lon="5.55692">
        <ele>554</ele>
        <time>2009-01-30T13:52:09Z</time>
      </trkpt>
      <trkpt lat="43.53846" lon="5.55681">
        <ele>554</ele>
        <time>2009-01-30T13:52:19Z</time>
      </trkpt>
      <trkpt lat="43.53843" lon="5.55669">
        <ele>554</ele>
        <time>2009-01-30T13:52:34Z</time>
      </trkpt>
      <trkpt lat="43.53843" lon="5.55656">
        <ele>548</ele>
        <time>2009-01-30T13:52:48Z</time>
      </trkpt>
      <trkpt lat="43.53841" lon="5.55643">
        <ele>545</ele>
        <time>2009-01-30T13:53:00Z</time>
      </trkpt>
      <trkpt lat="43.5384" lon="5.55631">
        <ele>543</ele>
        <time>2009-01-30T13:53:13Z</time>
      </trkpt>
      <trkpt lat="43.53839" lon="5.55618">
        <ele>542</ele>
        <time>2009-01-30T13:53:25Z</time>
      </trkpt>
      <trkpt lat="43.53841" lon="5.55605">
        <ele>541</ele>
        <time>2009-01-30T13:53:40Z</time>
      </trkpt>
      <trkpt lat="43.53841" lon="5.55593">
        <ele>540</ele>
        <time>2009-01-30T13:53:51Z</time>
      </trkpt>
      <trkpt lat="43.53844" lon="5.55581">
        <ele>535</ele>
        <time>2009-01-30T13:54:06Z</time>
      </trkpt>
      <trkpt lat="43.53843" lon="5.55569">
        <ele>532</ele>
        <time>2009-01-30T13:54:19Z</time>
      </trkpt>
      <trkpt lat="43.53846" lon="5.55557">
        <ele>529</ele>
        <time>2009-01-30T13:54:36Z</time>
      </trkpt>
      <trkpt lat="43.53848" lon="5.55545">
        <ele>527</ele>
        <time>2009-01-30T13:54:54Z</time>
      </trkpt>
      <trkpt lat="43.5385" lon="5.55533">
        <ele>525</ele>
        <time>2009-01-30T13:55:18Z</time>
      </trkpt>
      <trkpt lat="43.53856" lon="5.55523">
        <ele>524</ele>
        <time>2009-01-30T13:55:34Z</time>
      </trkpt>
      <trkpt lat="43.5386" lon="5.55511">
        <ele>523</ele>
        <time>2009-01-30T13:55:53Z</time>
      </trkpt>
      <trkpt lat="43.53856" lon="5.55499">
        <ele>514</ele>
        <time>2009-01-30T14:01:06Z</time>
      </trkpt>
      <trkpt lat="43.53857" lon="5.55487">
        <ele>512</ele>
        <time>2009-01-30T14:01:27Z</time>
      </trkpt>
      <trkpt lat="43.53857" lon="5.55474">
        <ele>510</ele>
        <time>2009-01-30T14:01:55Z</time>
      </trkpt>
      <trkpt lat="43.53854" lon="5.55463">
        <ele>508</ele>
        <time>2009-01-30T14:02:36Z</time>
      </trkpt>
      <trkpt lat="43.53852" lon="5.5545">
        <ele>506</ele>
        <time>2009-01-30T14:02:52Z</time>
      </trkpt>
      <trkpt lat="43.53855" lon="5.55438">
        <ele>504</ele>
        <time>2009-01-30T14:03:20Z</time>
      </trkpt>
      <trkpt lat="43.53858" lon="5.55427">
        <ele>503</ele>
        <time>2009-01-30T14:03:43Z</time>
      </trkpt>
      <trkpt lat="43.53861" lon="5.55415">
        <ele>490</ele>
        <time>2009-01-30T14:03:56Z</time>
      </trkpt>
      <trkpt lat="43.53867" lon="5.55405">
        <ele>489</ele>
        <time>2009-01-30T14:04:06Z</time>
      </trkpt>
      <trkpt lat="43.53872" lon="5.55395">
        <ele>488</ele>
        <time>2009-01-30T14:04:19Z</time>
      </trkpt>
      <trkpt lat="43.53876" lon="5.55383">
        <ele>486</ele>
        <time>2009-01-30T14:04:35Z</time>
      </trkpt>
      <trkpt lat="43.53883" lon="5.55376">
        <ele>486</ele>
        <time>2009-01-30T14:04:50Z</time>
      </trkpt>
      <trkpt lat="43.5389" lon="5.55367">
        <ele>485</ele>
        <time>2009-01-30T14:05:08Z</time>
      </trkpt>
      <trkpt lat="43.53898" lon="5.55361">
        <ele>485</ele>
        <time>2009-01-30T14:05:20Z</time>
      </trkpt>
      <trkpt lat="43.53906" lon="5.55353">
        <ele>484</ele>
        <time>2009-01-30T14:05:34Z</time>
      </trkpt>
      <trkpt lat="43.53913" lon="5.55345">
        <ele>483</ele>
        <time>2009-01-30T14:05:48Z</time>
      </trkpt>
      <trkpt lat="43.53918" lon="5.55334">
        <ele>482</ele>
        <time>2009-01-30T14:06:05Z</time>
      </trkpt>
      <trkpt lat="43.53921" lon="5.55322">
        <ele>477</ele>
        <time>2009-01-30T14:06:19Z</time>
      </trkpt>
      <trkpt lat="43.5392" lon="5.5531">
        <ele>474</ele>
        <time>2009-01-30T14:06:31Z</time>
      </trkpt>
      <trkpt lat="43.5392" lon="5.55297">
        <ele>473</ele>
        <time>2009-01-30T14:06:40Z</time>
      </trkpt>
      <trkpt lat="43.53925" lon="5.55287">
        <ele>471</ele>
        <time>2009-01-30T14:06:56Z</time>
      </trkpt>
      <trkpt lat="43.53933" lon="5.5528">
        <ele>470</ele>
        <time>2009-01-30T14:07:13Z</time>
      </trkpt>
      <trkpt lat="43.53934" lon="5.55268">
        <ele>470</ele>
        <time>2009-01-30T14:07:29Z</time>
      </trkpt>
      <trkpt lat="43.53933" lon="5.55254">
        <ele>470</ele>
        <time>2009-01-30T14:07:42Z</time>
      </trkpt>
      <trkpt lat="43.53931" lon="5.55242">
        <ele>465</ele>
        <time>2009-01-30T14:07:56Z</time>
      </trkpt>
      <trkpt lat="43.53928" lon="5.5523">
        <ele>464</ele>
        <time>2009-01-30T14:08:16Z</time>
      </trkpt>
      <trkpt lat="43.53922" lon="5.5522">
        <ele>464</ele>
        <time>2009-01-30T14:08:24Z</time>
      </trkpt>
      <trkpt lat="43.53919" lon="5.55208">
        <ele>463</ele>
        <time>2009-01-30T14:08:35Z</time>
      </trkpt>
      <trkpt lat="43.53916" lon="5.55196">
        <ele>460</ele>
        <time>2009-01-30T14:08:45Z</time>
      </trkpt>
      <trkpt lat="43.53916" lon="5.55182">
        <ele>461</ele>
        <time>2009-01-30T14:08:53Z</time>
      </trkpt>
      <trkpt lat="43.53916" lon="5.5517">
        <ele>462</ele>
        <time>2009-01-30T14:09:02Z</time>
      </trkpt>
      <trkpt lat="43.53915" lon="5.55156">
        <ele>459</ele>
        <time>2009-01-30T14:09:10Z</time>
      </trkpt>
      <trkpt lat="43.53915" lon="5.55144">
        <ele>456</ele>
        <time>2009-01-30T14:09:19Z</time>
      </trkpt>
      <trkpt lat="43.53918" lon="5.55132">
        <ele>455</ele>
        <time>2009-01-30T14:09:28Z</time>
      </trkpt>
      <trkpt lat="43.5392" lon="5.5512">
        <ele>454</ele>
        <time>2009-01-30T14:09:37Z</time>
      </trkpt>
      <trkpt lat="43.53918" lon="5.55109">
        <ele>454</ele>
        <time>2009-01-30T14:09:48Z</time>
      </trkpt>
      <trkpt lat="43.53917" lon="5.55096">
        <ele>454</ele>
        <time>2009-01-30T14:10:00Z</time>
      </trkpt>
      <trkpt lat="43.53914" lon="5.55083">
        <ele>455</ele>
        <time>2009-01-30T14:10:11Z</time>
      </trkpt>
      <trkpt lat="43.53909" lon="5.55072">
        <ele>450</ele>
        <time>2009-01-30T14:10:23Z</time>
      </trkpt>
      <trkpt lat="43.53907" lon="5.5506">
        <ele>447</ele>
        <time>2009-01-30T14:10:35Z</time>
      </trkpt>
      <trkpt lat="43.53904" lon="5.55048">
        <ele>445</ele>
        <time>2009-01-30T14:10:46Z</time>
      </trkpt>
      <trkpt lat="43.53901" lon="5.55036">
        <ele>444</ele>
        <time>2009-01-30T14:10:58Z</time>
      </trkpt>
      <trkpt lat="43.53898" lon="5.55024">
        <ele>443</ele>
        <time>2009-01-30T14:11:10Z</time>
      </trkpt>
      <trkpt lat="43.53896" lon="5.55011">
        <ele>442</ele>
        <time>2009-01-30T14:11:21Z</time>
      </trkpt>
      <trkpt lat="43.5389" lon="5.55001">
        <ele>442</ele>
        <time>2009-01-30T14:11:37Z</time>
      </trkpt>
      <trkpt lat="43.53885" lon="5.54989">
        <ele>436</ele>
        <time>2009-01-30T14:11:49Z</time>
      </trkpt>
      <trkpt lat="43.53884" lon="5.54977">
        <ele>435</ele>
        <time>2009-01-30T14:12:01Z</time>
      </trkpt>
      <trkpt lat="43.5388" lon="5.54965">
        <ele>434</ele>
        <time>2009-01-30T14:12:09Z</time>
      </trkpt>
      <trkpt lat="43.53875" lon="5.54954">
        <ele>433</ele>
        <time>2009-01-30T14:12:21Z</time>
      </trkpt>
      <trkpt lat="43.53872" lon="5.54942">
        <ele>433</ele>
        <time>2009-01-30T14:12:32Z</time>
      </trkpt>
      <trkpt lat="43.53867" lon="5.54929">
        <ele>432</ele>
        <time>2009-01-30T14:12:41Z</time>
      </trkpt>
      <trkpt lat="43.53864" lon="5.54917">
        <ele>432</ele>
        <time>2009-01-30T14:12:50Z</time>
      </trkpt>
      <trkpt lat="43.53859" lon="5.54907">
        <ele>427</ele>
        <time>2009-01-30T14:13:01Z</time>
      </trkpt>
      <trkpt lat="43.5385" lon="5.54901">
        <ele>427</ele>
        <time>2009-01-30T14:13:14Z</time>
      </trkpt>
      <trkpt lat="43.53843" lon="5.54894">
        <ele>427</ele>
        <time>2009-01-30T14:13:23Z</time>
      </trkpt>
      <trkpt lat="43.53835" lon="5.54886">
        <ele>427</ele>
        <time>2009-01-30T14:13:34Z</time>
      </trkpt>
      <trkpt lat="43.53831" lon="5.54874">
        <ele>424</ele>
        <time>2009-01-30T14:13:44Z</time>
      </trkpt>
      <trkpt lat="43.53822" lon="5.54869">
        <ele>424</ele>
        <time>2009-01-30T14:13:55Z</time>
      </trkpt>
      <trkpt lat="43.53815" lon="5.54862">
        <ele>424</ele>
        <time>2009-01-30T14:14:03Z</time>
      </trkpt>
      <trkpt lat="43.53808" lon="5.54854">
        <ele>424</ele>
        <time>2009-01-30T14:14:11Z</time>
      </trkpt>
      <trkpt lat="43.53804" lon="5.54843">
        <ele>424</ele>
        <time>2009-01-30T14:14:21Z</time>
      </trkpt>
      <trkpt lat="43.53803" lon="5.5483">
        <ele>421</ele>
        <time>2009-01-30T14:14:31Z</time>
      </trkpt>
      <trkpt lat="43.53802" lon="5.54818">
        <ele>421</ele>
        <time>2009-01-30T14:14:43Z</time>
      </trkpt>
      <trkpt lat="43.538" lon="5.54804">
        <ele>420</ele>
        <time>2009-01-30T14:14:51Z</time>
      </trkpt>
      <trkpt lat="43.53798" lon="5.54791">
        <ele>419</ele>
        <time>2009-01-30T14:15:06Z</time>
      </trkpt>
      <trkpt lat="43.53798" lon="5.54779">
        <ele>419</ele>
        <time>2009-01-30T14:15:22Z</time>
      </trkpt>
      <trkpt lat="43.53798" lon="5.54766">
        <ele>418</ele>
        <time>2009-01-30T14:15:41Z</time>
      </trkpt>
      <trkpt lat="43.53798" lon="5.54754">
        <ele>418</ele>
        <time>2009-01-30T14:15:59Z</time>
      </trkpt>
      <trkpt lat="43.53794" lon="5.54741">
        <ele>412</ele>
        <time>2009-01-30T14:16:18Z</time>
      </trkpt>
      <trkpt lat="43.53789" lon="5.5473">
        <ele>412</ele>
        <time>2009-01-30T14:16:47Z</time>
      </trkpt>
      <trkpt lat="43.53787" lon="5.54718">
        <ele>411</ele>
        <time>2009-01-30T14:17:11Z</time>
      </trkpt>
      <trkpt lat="43.53784" lon="5.54706">
        <ele>411</ele>
        <time>2009-01-30T14:17:27Z</time>
      </trkpt>
      <trkpt lat="43.53781" lon="5.54694">
        <ele>410</ele>
        <time>2009-01-30T14:17:40Z</time>
      </trkpt>
      <trkpt lat="43.53779" lon="5.54682">
        <ele>409</ele>
        <time>2009-01-30T14:17:54Z</time>
      </trkpt>
      <trkpt lat="43.53779" lon="5.54669">
        <ele>409</ele>
        <time>2009-01-30T14:18:05Z</time>
      </trkpt>
      <trkpt lat="43.5378" lon="5.54657">
        <ele>404</ele>
        <time>2009-01-30T14:18:13Z</time>
      </trkpt>
      <trkpt lat="43.5378" lon="5.54643">
        <ele>404</ele>
        <time>2009-01-30T14:18:20Z</time>
      </trkpt>
      <trkpt lat="43.53773" lon="5.54634">
        <ele>403</ele>
        <time>2009-01-30T14:18:32Z</time>
      </trkpt>
      <trkpt lat="43.53765" lon="5.54631">
        <ele>402</ele>
        <time>2009-01-30T14:18:42Z</time>
      </trkpt>
      <trkpt lat="43.53758" lon="5.54623">
        <ele>402</ele>
        <time>2009-01-30T14:18:51Z</time>
      </trkpt>
      <trkpt lat="43.53753" lon="5.54612">
        <ele>400</ele>
        <time>2009-01-30T14:19:01Z</time>
      </trkpt>
      <trkpt lat="43.53747" lon="5.54601">
        <ele>396</ele>
        <time>2009-01-30T14:19:19Z</time>
      </trkpt>
      <trkpt lat="43.53742" lon="5.54591">
        <ele>395</ele>
        <time>2009-01-30T14:19:27Z</time>
      </trkpt>
      <trkpt lat="43.53736" lon="5.5458">
        <ele>390</ele>
        <time>2009-01-30T14:19:36Z</time>
      </trkpt>
      <trkpt lat="43.53732" lon="5.54568">
        <ele>389</ele>
        <time>2009-01-30T14:19:41Z</time>
      </trkpt>
      <trkpt lat="43.53728" lon="5.54555">
        <ele>388</ele>
        <time>2009-01-30T14:19:56Z</time>
      </trkpt>
      <trkpt lat="43.5373" lon="5.54542">
        <ele>387</ele>
        <time>2009-01-30T14:20:11Z</time>
      </trkpt>
      <trkpt lat="43.5373" lon="5.54529">
        <ele>386</ele>
        <time>2009-01-30T14:20:21Z</time>
      </trkpt>
      <trkpt lat="43.53727" lon="5.54517">
        <ele>386</ele>
        <time>2009-01-30T14:20:30Z</time>
      </trkpt>
      <trkpt lat="43.53724" lon="5.54506">
        <ele>385</ele>
        <time>2009-01-30T14:20:39Z</time>
      </trkpt>
      <trkpt lat="43.5372" lon="5.54494">
        <ele>381</ele>
        <time>2009-01-30T14:20:49Z</time>
      </trkpt>
      <trkpt lat="43.53714" lon="5.54484">
        <ele>380</ele>
        <time>2009-01-30T14:21:02Z</time>
      </trkpt>
      <trkpt lat="43.53715" lon="5.5447">
        <ele>379</ele>
        <time>2009-01-30T14:21:10Z</time>
      </trkpt>
      <trkpt lat="43.53711" lon="5.54458">
        <ele>379</ele>
        <time>2009-01-30T14:21:39Z</time>
      </trkpt>
      <trkpt lat="43.53707" lon="5.54447">
        <ele>378</ele>
        <time>2009-01-30T14:21:54Z</time>
      </trkpt>
      <trkpt lat="43.53704" lon="5.54435">
        <ele>378</ele>
        <time>2009-01-30T14:22:04Z</time>
      </trkpt>
      <trkpt lat="43.537" lon="5.54423">
        <ele>377</ele>
        <time>2009-01-30T14:22:14Z</time>
      </trkpt>
      <trkpt lat="43.53696" lon="5.54411">
        <ele>373</ele>
        <time>2009-01-30T14:22:27Z</time>
      </trkpt>
      <trkpt lat="43.53688" lon="5.54402">
        <ele>372</ele>
        <time>2009-01-30T14:22:40Z</time>
      </trkpt>
      <trkpt lat="43.53683" lon="5.54392">
        <ele>371</ele>
        <time>2009-01-30T14:22:46Z</time>
      </trkpt>
      <trkpt lat="43.53678" lon="5.54382">
        <ele>371</ele>
        <time>2009-01-30T14:22:51Z</time>
      </trkpt>
      <trkpt lat="43.53672" lon="5.54371">
        <ele>370</ele>
        <time>2009-01-30T14:22:59Z</time>
      </trkpt>
      <trkpt lat="43.53665" lon="5.54364">
        <ele>366</ele>
        <time>2009-01-30T14:23:10Z</time>
      </trkpt>
      <trkpt lat="43.5366" lon="5.54354">
        <ele>366</ele>
        <time>2009-01-30T14:23:19Z</time>
      </trkpt>
      <trkpt lat="43.53661" lon="5.5434">
        <ele>364</ele>
        <time>2009-01-30T14:23:29Z</time>
      </trkpt>
      <trkpt lat="43.53664" lon="5.54328">
        <ele>363</ele>
        <time>2009-01-30T14:23:35Z</time>
      </trkpt>
      <trkpt lat="43.53667" lon="5.54316">
        <ele>364</ele>
        <time>2009-01-30T14:23:45Z</time>
      </trkpt>
      <trkpt lat="43.53669" lon="5.54305">
        <ele>364</ele>
        <time>2009-01-30T14:23:53Z</time>
      </trkpt>
      <trkpt lat="43.53674" lon="5.54294">
        <ele>364</ele>
        <time>2009-01-30T14:24:02Z</time>
      </trkpt>
      <trkpt lat="43.53674" lon="5.54281">
        <ele>364</ele>
        <time>2009-01-30T14:24:12Z</time>
      </trkpt>
      <trkpt lat="43.53671" lon="5.5427">
        <ele>363</ele>
        <time>2009-01-30T14:24:20Z</time>
      </trkpt>
      <trkpt lat="43.53672" lon="5.54257">
        <ele>361</ele>
        <time>2009-01-30T14:24:30Z</time>
      </trkpt>
      <trkpt lat="43.53674" lon="5.54244">
        <ele>359</ele>
        <time>2009-01-30T14:24:42Z</time>
      </trkpt>
      <trkpt lat="43.53669" lon="5.54233">
        <ele>360</ele>
        <time>2009-01-30T14:24:54Z</time>
      </trkpt>
      <trkpt lat="43.53666" lon="5.5422">
        <ele>366</ele>
        <time>2009-01-30T14:25:02Z</time>
      </trkpt>
      <trkpt lat="43.53664" lon="5.54208">
        <ele>367</ele>
        <time>2009-01-30T14:25:08Z</time>
      </trkpt>
      <trkpt lat="43.53661" lon="5.54197">
        <ele>367</ele>
        <time>2009-01-30T14:25:15Z</time>
      </trkpt>
      <trkpt lat="43.53658" lon="5.54185">
        <ele>367</ele>
        <time>2009-01-30T14:25:30Z</time>
      </trkpt>
      <trkpt lat="43.53663" lon="5.54173">
        <ele>364</ele>
        <time>2009-01-30T14:25:44Z</time>
      </trkpt>
      <trkpt lat="43.53665" lon="5.54162">
        <ele>365</ele>
        <time>2009-01-30T14:25:54Z</time>
      </trkpt>
      <trkpt lat="43.53673" lon="5.54153">
        <ele>362</ele>
        <time>2009-01-30T14:26:07Z</time>
      </trkpt>
      <trkpt lat="43.53675" lon="5.54141">
        <ele>363</ele>
        <time>2009-01-30T14:26:22Z</time>
      </trkpt>
      <trkpt lat="43.53684" lon="5.54138">
        <ele>363</ele>
        <time>2009-01-30T14:26:53Z</time>
      </trkpt>
      <trkpt lat="43.53689" lon="5.54126">
        <ele>363</ele>
        <time>2009-01-30T14:27:03Z</time>
      </trkpt>
      <trkpt lat="43.53692" lon="5.54114">
        <ele>364</ele>
        <time>2009-01-30T14:27:15Z</time>
      </trkpt>
      <trkpt lat="43.53696" lon="5.54102">
        <ele>365</ele>
        <time>2009-01-30T14:27:37Z</time>
      </trkpt>
      <trkpt lat="43.53701" lon="5.54093">
        <ele>364</ele>
        <time>2009-01-30T14:27:58Z</time>
      </trkpt>
      <trkpt lat="43.53705" lon="5.54081">
        <ele>370</ele>
        <time>2009-01-30T14:28:12Z</time>
      </trkpt>
      <trkpt lat="43.53708" lon="5.54069">
        <ele>370</ele>
        <time>2009-01-30T14:28:25Z</time>
      </trkpt>
      <trkpt lat="43.53709" lon="5.54057">
        <ele>370</ele>
        <time>2009-01-30T14:28:38Z</time>
      </trkpt>
      <trkpt lat="43.5371" lon="5.54044">
        <ele>371</ele>
        <time>2009-01-30T14:28:47Z</time>
      </trkpt>
      <trkpt lat="43.53711" lon="5.54031">
        <ele>372</ele>
        <time>2009-01-30T14:29:00Z</time>
      </trkpt>
      <trkpt lat="43.53715" lon="5.54019">
        <ele>372</ele>
        <time>2009-01-30T14:29:09Z</time>
      </trkpt>
      <trkpt lat="43.53722" lon="5.54009">
        <ele>372</ele>
        <time>2009-01-30T14:29:19Z</time>
      </trkpt>
      <trkpt lat="43.53726" lon="5.53997">
        <ele>376</ele>
        <time>2009-01-30T14:29:32Z</time>
      </trkpt>
      <trkpt lat="43.53734" lon="5.5399">
        <ele>375</ele>
        <time>2009-01-30T14:29:40Z</time>
      </trkpt>
      <trkpt lat="43.53742" lon="5.53984">
        <ele>375</ele>
        <time>2009-01-30T14:29:48Z</time>
      </trkpt>
      <trkpt lat="43.5375" lon="5.53975">
        <ele>376</ele>
        <time>2009-01-30T14:29:58Z</time>
      </trkpt>
      <trkpt lat="43.53756" lon="5.53966">
        <ele>368</ele>
        <time>2009-01-30T14:30:08Z</time>
      </trkpt>
      <trkpt lat="43.53762" lon="5.53956">
        <ele>368</ele>
        <time>2009-01-30T14:30:16Z</time>
      </trkpt>
      <trkpt lat="43.53768" lon="5.53947">
        <ele>368</ele>
        <time>2009-01-30T14:30:27Z</time>
      </trkpt>
      <trkpt lat="43.53775" lon="5.53937">
        <ele>368</ele>
        <time>2009-01-30T14:30:36Z</time>
      </trkpt>
      <trkpt lat="43.53781" lon="5.53926">
        <ele>368</ele>
        <time>2009-01-30T14:30:48Z</time>
      </trkpt>
      <trkpt lat="43.53787" lon="5.53914">
        <ele>371</ele>
        <time>2009-01-30T14:30:54Z</time>
      </trkpt>
      <trkpt lat="43.53796" lon="5.53908">
        <ele>370</ele>
        <time>2009-01-30T14:31:03Z</time>
      </trkpt>
      <trkpt lat="43.53801" lon="5.53898">
        <ele>370</ele>
        <time>2009-01-30T14:31:12Z</time>
      </trkpt>
      <trkpt lat="43.53806" lon="5.53887">
        <ele>370</ele>
        <time>2009-01-30T14:31:25Z</time>
      </trkpt>
      <trkpt lat="43.53813" lon="5.53879">
        <ele>370</ele>
        <time>2009-01-30T14:31:38Z</time>
      </trkpt>
      <trkpt lat="43.53819" lon="5.53869">
        <ele>370</ele>
        <time>2009-01-30T14:31:48Z</time>
      </trkpt>
      <trkpt lat="43.53824" lon="5.53858">
        <ele>370</ele>
        <time>2009-01-30T14:31:58Z</time>
      </trkpt>
      <trkpt lat="43.5383" lon="5.53847">
        <ele>370</ele>
        <time>2009-01-30T14:32:08Z</time>
      </trkpt>
      <trkpt lat="43.53833" lon="5.53835">
        <ele>369</ele>
        <time>2009-01-30T14:32:17Z</time>
      </trkpt>
      <trkpt lat="43.53838" lon="5.53823">
        <ele>367</ele>
        <time>2009-01-30T14:32:30Z</time>
      </trkpt>
      <trkpt lat="43.53843" lon="5.53811">
        <ele>365</ele>
        <time>2009-01-30T14:32:40Z</time>
      </trkpt>
      <trkpt lat="43.5385" lon="5.53803">
        <ele>364</ele>
        <time>2009-01-30T14:32:48Z</time>
      </trkpt>
      <trkpt lat="43.53855" lon="5.53793">
        <ele>364</ele>
        <time>2009-01-30T14:32:58Z</time>
      </trkpt>
      <trkpt lat="43.53864" lon="5.53784">
        <ele>364</ele>
        <time>2009-01-30T14:33:06Z</time>
      </trkpt>
      <trkpt lat="43.53869" lon="5.53775">
        <ele>363</ele>
        <time>2009-01-30T14:33:13Z</time>
      </trkpt>
      <trkpt lat="43.53875" lon="5.53765">
        <ele>363</ele>
        <time>2009-01-30T14:33:21Z</time>
      </trkpt>
      <trkpt lat="43.5388" lon="5.53754">
        <ele>363</ele>
        <time>2009-01-30T14:33:31Z</time>
      </trkpt>
      <trkpt lat="43.5388" lon="5.53741">
        <ele>365</ele>
        <time>2009-01-30T14:33:41Z</time>
      </trkpt>
      <trkpt lat="43.53882" lon="5.53728">
        <ele>365</ele>
        <time>2009-01-30T14:33:51Z</time>
      </trkpt>
      <trkpt lat="43.53883" lon="5.53715">
        <ele>365</ele>
        <time>2009-01-30T14:33:59Z</time>
      </trkpt>
      <trkpt lat="43.53885" lon="5.53702">
        <ele>364</ele>
        <time>2009-01-30T14:34:09Z</time>
      </trkpt>
      <trkpt lat="43.53885" lon="5.53689">
        <ele>364</ele>
        <time>2009-01-30T14:34:19Z</time>
      </trkpt>
      <trkpt lat="43.53886" lon="5.53677">
        <ele>364</ele>
        <time>2009-01-30T14:34:29Z</time>
      </trkpt>
      <trkpt lat="43.53891" lon="5.53666">
        <ele>361</ele>
        <time>2009-01-30T14:34:38Z</time>
      </trkpt>
      <trkpt lat="43.53897" lon="5.53656">
        <ele>360</ele>
        <time>2009-01-30T14:34:46Z</time>
      </trkpt>
      <trkpt lat="43.53901" lon="5.53644">
        <ele>360</ele>
        <time>2009-01-30T14:34:57Z</time>
      </trkpt>
      <trkpt lat="43.53901" lon="5.53631">
        <ele>360</ele>
        <time>2009-01-30T14:35:07Z</time>
      </trkpt>
      <trkpt lat="43.53901" lon="5.53618">
        <ele>359</ele>
        <time>2009-01-30T14:35:17Z</time>
      </trkpt>
      <trkpt lat="43.53901" lon="5.53606">
        <ele>358</ele>
        <time>2009-01-30T14:35:25Z</time>
      </trkpt>
      <trkpt lat="43.53903" lon="5.53592">
        <ele>356</ele>
        <time>2009-01-30T14:35:35Z</time>
      </trkpt>
      <trkpt lat="43.53906" lon="5.53581">
        <ele>353</ele>
        <time>2009-01-30T14:35:44Z</time>
      </trkpt>
      <trkpt lat="43.53909" lon="5.53568">
        <ele>353</ele>
        <time>2009-01-30T14:35:55Z</time>
      </trkpt>
      <trkpt lat="43.53918" lon="5.53568">
        <ele>341</ele>
        <time>2009-01-30T14:36:14Z</time>
      </trkpt>
      <trkpt lat="43.53923" lon="5.5358">
        <ele>345</ele>
        <time>2009-01-30T14:36:28Z</time>
      </trkpt>
      <trkpt lat="43.53928" lon="5.53591">
        <ele>345</ele>
        <time>2009-01-30T14:36:39Z</time>
      </trkpt>
      <trkpt lat="43.53934" lon="5.53601">
        <ele>342</ele>
        <time>2009-01-30T14:36:49Z</time>
      </trkpt>
      <trkpt lat="43.53943" lon="5.53607">
        <ele>340</ele>
        <time>2009-01-30T14:37:25Z</time>
      </trkpt>
      <trkpt lat="43.5395" lon="5.53614">
        <ele>339</ele>
        <time>2009-01-30T14:37:34Z</time>
      </trkpt>
      <trkpt lat="43.53958" lon="5.5362">
        <ele>337</ele>
        <time>2009-01-30T14:37:44Z</time>
      </trkpt>
      <trkpt lat="43.53966" lon="5.53626">
        <ele>336</ele>
        <time>2009-01-30T14:37:52Z</time>
      </trkpt>
      <trkpt lat="43.53974" lon="5.53633">
        <ele>335</ele>
        <time>2009-01-30T14:38:00Z</time>
      </trkpt>
      <trkpt lat="43.53982" lon="5.53638">
        <ele>334</ele>
        <time>2009-01-30T14:38:08Z</time>
      </trkpt>
      <trkpt lat="43.53991" lon="5.53643">
        <ele>333</ele>
        <time>2009-01-30T14:38:17Z</time>
      </trkpt>
      <trkpt lat="43.54" lon="5.53646">
        <ele>332</ele>
        <time>2009-01-30T14:38:25Z</time>
      </trkpt>
      <trkpt lat="43.5401" lon="5.53649">
        <ele>324</ele>
        <time>2009-01-30T14:38:34Z</time>
      </trkpt>
      <trkpt lat="43.5402" lon="5.53651">
        <ele>324</ele>
        <time>2009-01-30T14:38:42Z</time>
      </trkpt>
      <trkpt lat="43.54029" lon="5.53652">
        <ele>323</ele>
        <time>2009-01-30T14:38:50Z</time>
      </trkpt>
      <trkpt lat="43.54038" lon="5.53652">
        <ele>323</ele>
        <time>2009-01-30T14:38:58Z</time>
      </trkpt>
      <trkpt lat="43.54047" lon="5.5365">
        <ele>323</ele>
        <time>2009-01-30T14:39:06Z</time>
      </trkpt>
      <trkpt lat="43.54057" lon="5.53647">
        <ele>322</ele>
        <time>2009-01-30T14:39:15Z</time>
      </trkpt>
      <trkpt lat="43.54066" lon="5.53645">
        <ele>322</ele>
        <time>2009-01-30T14:39:23Z</time>
      </trkpt>
      <trkpt lat="43.54075" lon="5.53643">
        <ele>323</ele>
        <time>2009-01-30T14:39:31Z</time>
      </trkpt>
      <trkpt lat="43.54085" lon="5.53637">
        <ele>326</ele>
        <time>2009-01-30T14:39:39Z</time>
      </trkpt>
      <trkpt lat="43.54094" lon="5.53634">
        <ele>326</ele>
        <time>2009-01-30T14:39:47Z</time>
      </trkpt>
      <trkpt lat="43.54102" lon="5.53627">
        <ele>326</ele>
        <time>2009-01-30T14:39:55Z</time>
      </trkpt>
      <trkpt lat="43.54111" lon="5.5362">
        <ele>327</ele>
        <time>2009-01-30T14:40:04Z</time>
      </trkpt>
      <trkpt lat="43.54118" lon="5.53611">
        <ele>327</ele>
        <time>2009-01-30T14:40:13Z</time>
      </trkpt>
      <trkpt lat="43.54124" lon="5.53602">
        <ele>328</ele>
        <time>2009-01-30T14:40:21Z</time>
      </trkpt>
      <trkpt lat="43.54131" lon="5.53592">
        <ele>329</ele>
        <time>2009-01-30T14:40:29Z</time>
      </trkpt>
      <trkpt lat="43.54138" lon="5.53583">
        <ele>333</ele>
        <time>2009-01-30T14:40:38Z</time>
      </trkpt>
      <trkpt lat="43.54145" lon="5.53573">
        <ele>334</ele>
        <time>2009-01-30T14:40:47Z</time>
      </trkpt>
      <trkpt lat="43.54152" lon="5.53563">
        <ele>335</ele>
        <time>2009-01-30T14:40:56Z</time>
      </trkpt>
      <trkpt lat="43.54154" lon="5.53551">
        <ele>335</ele>
        <time>2009-01-30T14:41:05Z</time>
      </trkpt>
      <trkpt lat="43.54154" lon="5.53538">
        <ele>336</ele>
        <time>2009-01-30T14:41:14Z</time>
      </trkpt>
      <trkpt lat="43.54153" lon="5.53525">
        <ele>337</ele>
        <time>2009-01-30T14:41:25Z</time>
      </trkpt>
      <trkpt lat="43.54151" lon="5.53512">
        <ele>340</ele>
        <time>2009-01-30T14:41:37Z</time>
      </trkpt>
      <trkpt lat="43.54148" lon="5.53501">
        <ele>340</ele>
        <time>2009-01-30T14:41:45Z</time>
      </trkpt>
      <trkpt lat="43.54145" lon="5.53489">
        <ele>340</ele>
        <time>2009-01-30T14:41:54Z</time>
      </trkpt>
      <trkpt lat="43.54143" lon="5.53477">
        <ele>338</ele>
        <time>2009-01-30T14:42:02Z</time>
      </trkpt>
      <trkpt lat="43.54141" lon="5.53465">
        <ele>337</ele>
        <time>2009-01-30T14:42:12Z</time>
      </trkpt>
      <trkpt lat="43.54139" lon="5.53451">
        <ele>337</ele>
        <time>2009-01-30T14:42:21Z</time>
      </trkpt>
      <trkpt lat="43.5414" lon="5.53439">
        <ele>338</ele>
        <time>2009-01-30T14:42:30Z</time>
      </trkpt>
      <trkpt lat="43.54145" lon="5.53428">
        <ele>341</ele>
        <time>2009-01-30T14:42:40Z</time>
      </trkpt>
      <trkpt lat="43.54151" lon="5.53418">
        <ele>345</ele>
        <time>2009-01-30T14:42:48Z</time>
      </trkpt>
      <trkpt lat="43.54155" lon="5.53406">
        <ele>345</ele>
        <time>2009-01-30T14:42:56Z</time>
      </trkpt>
      <trkpt lat="43.5416" lon="5.53396">
        <ele>343</ele>
        <time>2009-01-30T14:43:05Z</time>
      </trkpt>
      <trkpt lat="43.54163" lon="5.53384">
        <ele>341</ele>
        <time>2009-01-30T14:43:15Z</time>
      </trkpt>
      <trkpt lat="43.54163" lon="5.5337">
        <ele>341</ele>
        <time>2009-01-30T14:43:23Z</time>
      </trkpt>
      <trkpt lat="43.54165" lon="5.53357">
        <ele>342</ele>
        <time>2009-01-30T14:43:32Z</time>
      </trkpt>
      <trkpt lat="43.54166" lon="5.53344">
        <ele>346</ele>
        <time>2009-01-30T14:43:41Z</time>
      </trkpt>
      <trkpt lat="43.54167" lon="5.53331">
        <ele>353</ele>
        <time>2009-01-30T14:43:50Z</time>
      </trkpt>
      <trkpt lat="43.54167" lon="5.53317">
        <ele>356</ele>
        <time>2009-01-30T14:43:58Z</time>
      </trkpt>
      <trkpt lat="43.54169" lon="5.53305">
        <ele>358</ele>
        <time>2009-01-30T14:44:08Z</time>
      </trkpt>
      <trkpt lat="43.54169" lon="5.53291">
        <ele>359</ele>
        <time>2009-01-30T14:44:20Z</time>
      </trkpt>
      <trkpt lat="43.54165" lon="5.5328">
        <ele>345</ele>
        <time>2009-01-30T14:44:28Z</time>
      </trkpt>
      <trkpt lat="43.54161" lon="5.53266">
        <ele>348</ele>
        <time>2009-01-30T14:44:36Z</time>
      </trkpt>
      <trkpt lat="43.54157" lon="5.53254">
        <ele>350</ele>
        <time>2009-01-30T14:44:45Z</time>
      </trkpt>
      <trkpt lat="43.54158" lon="5.53241">
        <ele>353</ele>
        <time>2009-01-30T14:44:56Z</time>
      </trkpt>
      <trkpt lat="43.54167" lon="5.53245">
        <ele>358</ele>
        <time>2009-01-30T14:45:08Z</time>
      </trkpt>
      <trkpt lat="43.54164" lon="5.53256">
        <ele>352</ele>
        <time>2009-01-30T13:53:27Z</time>
      </trkpt>
    </trkseg>
  </trk>
</gpx>